BLKT28 YPDN-YPDN
Flight info
| Callsign | BLKT28 |
|---|---|
| Flight time | 4h 24m |
| Altitude | 38000 |
| Route | N0468F380 DCT DN J61 IKUMA/N0467F390 DCT 114541S1243853E 122904S1231945E 123948S1203305E 152410S1202654E 174039S1185900E 203550S1155055E 213808S1142447E 204631S1131057E 170435S1173954E 151309S1184549E 130103S1185808E 130428S1230651E 105623S1270039E 113235S1271906E 133242S1232241E 141521S1234201E 121229S1273745E 131529S1280527E 114210S1314338E 094536S1333740E 085610S1314417E 090438S1301041E DCT AVMAN M768 ANUPA DCT |
| Aircraft | P8/M-SADE2E3FGHIJ1J3J4J7M3P2RWXYZ/LB1D1 |
Departure
| Time | 2026-05-06 05:10 |
|---|---|
| Airport | Darwin International Airport / RAAF Darwin (YPDN) |
Arrival
| Time | 2026-05-06 09:34 |
|---|---|
| Airport | Darwin International Airport / RAAF Darwin (YPDN) |
| Time | Latitude | Longitude | Altitude | Speed | Heading |
|---|---|---|---|---|---|
| 2026-05-06 04:58 | -12.41553 | 130.86727 | 88 ft | 0 kts | 360° |
| 2026-05-06 05:06 | -12.41537 | 130.86727 | 90 ft | 8 kts | 1° |
| 2026-05-06 05:06 | -12.41509 | 130.86789 | 89 ft | 13 kts | 86° |
| 2026-05-06 05:07 | -12.41511 | 130.86882 | 89 ft | 13 kts | 91° |
| 2026-05-06 05:07 | -12.41454 | 130.86936 | 89 ft | 13 kts | 1° |
| 2026-05-06 05:07 | -12.41371 | 130.86919 | 89 ft | 12 kts | 329° |
| 2026-05-06 05:07 | -12.41331 | 130.86845 | 91 ft | 12 kts | 289° |
| 2026-05-06 05:08 | -12.41302 | 130.86765 | 89 ft | 12 kts | 291° |
| 2026-05-06 05:08 | -12.41275 | 130.86687 | 89 ft | 12 kts | 287° |
| 2026-05-06 05:08 | -12.41250 | 130.86610 | 91 ft | 11 kts | 288° |
| 2026-05-06 05:08 | -12.41224 | 130.86536 | 89 ft | 11 kts | 296° |
| 2026-05-06 05:09 | -12.41161 | 130.86481 | 89 ft | 15 kts | 340° |
| 2026-05-06 05:09 | -12.41037 | 130.86498 | 89 ft | 20 kts | 20° |
| 2026-05-06 05:09 | -12.40952 | 130.86568 | 90 ft | 15 kts | 100° |
| 2026-05-06 05:09 | -12.40990 | 130.86684 | 91 ft | 28 kts | 109° |
| 2026-05-06 05:10 | -12.41135 | 130.87112 | 91 ft | 100 kts | 108° |
| 2026-05-06 05:10 | -12.41427 | 130.87982 | 131 ft | 153 kts | 107° |
| 2026-05-06 05:10 | -12.41759 | 130.89037 | 773 ft | 162 kts | 105° |
| 2026-05-06 05:10 | -12.42106 | 130.90103 | 1705 ft | 155 kts | 111° |
| 2026-05-06 05:11 | -12.42474 | 130.91189 | 2339 ft | 173 kts | 111° |
| 2026-05-06 05:11 | -12.42910 | 130.92468 | 2611 ft | 205 kts | 110° |
| 2026-05-06 05:11 | -12.43150 | 130.93449 | 2724 ft | 226 kts | 94° |
| 2026-05-06 05:11 | -12.42790 | 130.95098 | 2982 ft | 252 kts | 65° |
| 2026-05-06 05:12 | -12.41625 | 130.96491 | 3613 ft | 267 kts | 37° |
| 2026-05-06 05:12 | -12.39885 | 130.97144 | 4602 ft | 273 kts | 8° |
| 2026-05-06 05:12 | -12.37986 | 130.96831 | 5436 ft | 285 kts | 338° |
| 2026-05-06 05:12 | -12.36294 | 130.95723 | 6236 ft | 293 kts | 323° |
| 2026-05-06 05:13 | -12.34712 | 130.94369 | 7032 ft | 298 kts | 320° |
| 2026-05-06 05:13 | -12.33151 | 130.92986 | 7946 ft | 296 kts | 320° |
| 2026-05-06 05:13 | -12.31568 | 130.91609 | 8753 ft | 300 kts | 321° |
| 2026-05-06 05:13 | -12.29977 | 130.90263 | 9591 ft | 300 kts | 321° |
| 2026-05-06 05:14 | -12.28360 | 130.88922 | 10444 ft | 301 kts | 321° |
| 2026-05-06 05:14 | -12.26676 | 130.87539 | 10718 ft | 323 kts | 321° |
| 2026-05-06 05:14 | -12.24861 | 130.86049 | 10890 ft | 345 kts | 319° |
| 2026-05-06 05:14 | -12.23297 | 130.84120 | 11114 ft | 361 kts | 296° |
| 2026-05-06 05:15 | -12.22576 | 130.81656 | 11680 ft | 365 kts | 275° |
| 2026-05-06 05:15 | -12.22528 | 130.79064 | 12459 ft | 364 kts | 269° |
| 2026-05-06 05:15 | -12.22576 | 130.76475 | 13219 ft | 364 kts | 269° |
| 2026-05-06 05:15 | -12.22632 | 130.73869 | 13843 ft | 368 kts | 269° |
| 2026-05-06 05:16 | -12.22676 | 130.71235 | 14403 ft | 372 kts | 269° |
| 2026-05-06 05:16 | -12.22704 | 130.68575 | 15001 ft | 375 kts | 270° |
| 2026-05-06 05:16 | -12.22722 | 130.65936 | 15593 ft | 377 kts | 270° |
| 2026-05-06 05:16 | -12.22736 | 130.63239 | 16170 ft | 381 kts | 270° |
| 2026-05-06 05:17 | -12.22749 | 130.60519 | 16752 ft | 383 kts | 270° |
| 2026-05-06 05:17 | -12.22762 | 130.57781 | 17314 ft | 386 kts | 270° |
| 2026-05-06 05:17 | -12.22659 | 130.55031 | 17861 ft | 389 kts | 277° |
| 2026-05-06 05:17 | -12.22103 | 130.52309 | 18375 ft | 392 kts | 285° |
| 2026-05-06 05:18 | -12.21144 | 130.49690 | 18825 ft | 396 kts | 295° |
| 2026-05-06 05:18 | -12.19874 | 130.47181 | 19265 ft | 399 kts | 297° |
| 2026-05-06 05:18 | -12.18547 | 130.44675 | 19695 ft | 402 kts | 298° |
| 2026-05-06 05:18 | -12.17200 | 130.42155 | 20125 ft | 405 kts | 298° |
| 2026-05-06 05:19 | -12.15845 | 130.39613 | 20563 ft | 408 kts | 298° |
| 2026-05-06 05:19 | -12.14489 | 130.37053 | 20980 ft | 411 kts | 297° |
| 2026-05-06 05:19 | -12.13132 | 130.34474 | 21392 ft | 414 kts | 297° |
| 2026-05-06 05:19 | -12.11763 | 130.31861 | 21810 ft | 417 kts | 297° |
| 2026-05-06 05:20 | -12.10395 | 130.29244 | 22234 ft | 419 kts | 297° |
| 2026-05-06 05:20 | -12.09023 | 130.26616 | 22620 ft | 422 kts | 297° |
| 2026-05-06 05:20 | -12.07651 | 130.23986 | 22998 ft | 424 kts | 298° |
| 2026-05-06 05:20 | -12.06253 | 130.21308 | 23381 ft | 427 kts | 298° |
| 2026-05-06 05:21 | -12.04851 | 130.18623 | 23703 ft | 430 kts | 298° |
| 2026-05-06 05:21 | -12.03438 | 130.15919 | 24040 ft | 431 kts | 298° |
| 2026-05-06 05:21 | -12.02020 | 130.13203 | 24372 ft | 432 kts | 298° |
| 2026-05-06 05:21 | -12.00604 | 130.10495 | 24700 ft | 434 kts | 298° |
| 2026-05-06 05:22 | -11.99194 | 130.07798 | 25005 ft | 435 kts | 298° |
| 2026-05-06 05:22 | -11.97766 | 130.05069 | 25305 ft | 437 kts | 298° |
| 2026-05-06 05:22 | -11.96329 | 130.02322 | 25608 ft | 438 kts | 297° |
| 2026-05-06 05:22 | -11.94889 | 129.99570 | 25910 ft | 440 kts | 297° |
| 2026-05-06 05:23 | -11.93446 | 129.96813 | 26210 ft | 441 kts | 297° |
| 2026-05-06 05:23 | -11.91994 | 129.94042 | 26498 ft | 442 kts | 297° |
| 2026-05-06 05:23 | -11.89083 | 129.88485 | 27066 ft | 445 kts | 297° |
| 2026-05-06 05:24 | -11.87619 | 129.85692 | 27336 ft | 446 kts | 297° |
| 2026-05-06 05:24 | -11.86170 | 129.82926 | 27597 ft | 447 kts | 297° |
| 2026-05-06 05:24 | -11.84693 | 129.80109 | 27846 ft | 449 kts | 297° |
| 2026-05-06 05:24 | -11.83218 | 129.77297 | 28093 ft | 450 kts | 297° |
| 2026-05-06 05:25 | -11.81737 | 129.74474 | 28335 ft | 451 kts | 297° |
| 2026-05-06 05:25 | -11.80251 | 129.71644 | 28567 ft | 453 kts | 297° |
| 2026-05-06 05:25 | -11.78759 | 129.68801 | 28801 ft | 454 kts | 297° |
| 2026-05-06 05:25 | -11.77266 | 129.65960 | 29027 ft | 455 kts | 297° |
| 2026-05-06 05:26 | -11.75767 | 129.63106 | 29240 ft | 456 kts | 297° |
| 2026-05-06 05:26 | -11.74283 | 129.60283 | 29482 ft | 457 kts | 297° |
| 2026-05-06 05:26 | -11.72785 | 129.57434 | 29819 ft | 455 kts | 297° |
| 2026-05-06 05:26 | -11.71271 | 129.54555 | 30156 ft | 453 kts | 297° |
| 2026-05-06 05:27 | -11.69804 | 129.51763 | 30455 ft | 452 kts | 297° |
| 2026-05-06 05:27 | -11.68319 | 129.48940 | 30702 ft | 451 kts | 297° |
| 2026-05-06 05:27 | -11.66833 | 129.46115 | 30950 ft | 452 kts | 297° |
| 2026-05-06 05:27 | -11.65347 | 129.43292 | 31233 ft | 451 kts | 297° |
| 2026-05-06 05:28 | -11.63860 | 129.40467 | 31548 ft | 449 kts | 297° |
| 2026-05-06 05:28 | -11.62380 | 129.37656 | 31869 ft | 448 kts | 296° |
| 2026-05-06 05:28 | -11.60927 | 129.34896 | 32136 ft | 448 kts | 296° |
| 2026-05-06 05:28 | -11.59452 | 129.32096 | 32419 ft | 448 kts | 296° |
| 2026-05-06 05:29 | -11.57978 | 129.29301 | 32751 ft | 447 kts | 296° |
| 2026-05-06 05:29 | -11.56509 | 129.26514 | 33059 ft | 446 kts | 296° |
| 2026-05-06 05:29 | -11.55041 | 129.23730 | 33368 ft | 445 kts | 296° |
| 2026-05-06 05:29 | -11.53574 | 129.20948 | 33687 ft | 444 kts | 296° |
| 2026-05-06 05:30 | -11.52108 | 129.18170 | 33990 ft | 444 kts | 296° |
| 2026-05-06 05:30 | -11.50644 | 129.15396 | 34268 ft | 443 kts | 296° |
| 2026-05-06 05:30 | -11.49189 | 129.12639 | 34557 ft | 442 kts | 296° |
| 2026-05-06 05:30 | -11.47731 | 129.09878 | 34854 ft | 441 kts | 296° |
| 2026-05-06 05:31 | -11.46280 | 129.07130 | 35136 ft | 440 kts | 296° |
| 2026-05-06 05:31 | -11.44845 | 129.04415 | 35410 ft | 440 kts | 296° |
| 2026-05-06 05:31 | -11.43399 | 129.01679 | 35686 ft | 439 kts | 296° |
| 2026-05-06 05:31 | -11.41951 | 128.98939 | 35956 ft | 438 kts | 296° |
| 2026-05-06 05:32 | -11.40505 | 128.96204 | 36241 ft | 437 kts | 296° |
| 2026-05-06 05:32 | -11.37795 | 128.91080 | 36766 ft | 436 kts | 296° |
| 2026-05-06 05:32 | -11.36355 | 128.88359 | 37021 ft | 435 kts | 296° |
| 2026-05-06 05:33 | -11.34937 | 128.85680 | 37283 ft | 434 kts | 296° |
| 2026-05-06 05:33 | -11.33505 | 128.82975 | 37551 ft | 434 kts | 296° |
| 2026-05-06 05:33 | -11.32070 | 128.80266 | 37799 ft | 433 kts | 296° |
| 2026-05-06 05:33 | -11.30632 | 128.77551 | 37886 ft | 436 kts | 296° |
| 2026-05-06 05:34 | -11.27747 | 128.72103 | 37888 ft | 435 kts | 296° |
| 2026-05-06 05:34 | -11.24887 | 128.66711 | 37561 ft | 428 kts | 296° |
| 2026-05-06 05:35 | -11.23481 | 128.64065 | 37299 ft | 419 kts | 296° |
| 2026-05-06 05:35 | -11.22105 | 128.61477 | 37032 ft | 412 kts | 296° |
| 2026-05-06 05:35 | -11.20757 | 128.58942 | 36774 ft | 403 kts | 296° |
| 2026-05-06 05:35 | -11.19453 | 128.56490 | 36520 ft | 395 kts | 295° |
| 2026-05-06 05:36 | -11.18151 | 128.54038 | 36273 ft | 392 kts | 295° |
| 2026-05-06 05:36 | -11.16850 | 128.51588 | 36047 ft | 395 kts | 295° |
| 2026-05-06 05:36 | -11.15541 | 128.49121 | 35808 ft | 396 kts | 295° |
| 2026-05-06 05:36 | -11.14229 | 128.46649 | 35586 ft | 398 kts | 295° |
| 2026-05-06 05:37 | -11.12909 | 128.44164 | 35353 ft | 399 kts | 295° |
| 2026-05-06 05:37 | -11.11584 | 128.41672 | 35123 ft | 400 kts | 295° |
| 2026-05-06 05:37 | -11.10256 | 128.39175 | 34896 ft | 401 kts | 295° |
| 2026-05-06 05:37 | -11.08942 | 128.36705 | 34675 ft | 402 kts | 295° |
| 2026-05-06 05:38 | -11.07607 | 128.34196 | 34457 ft | 403 kts | 295° |
| 2026-05-06 05:38 | -11.06270 | 128.31684 | 34230 ft | 404 kts | 295° |
| 2026-05-06 05:38 | -11.04930 | 128.29168 | 34000 ft | 404 kts | 295° |
| 2026-05-06 05:38 | -11.03586 | 128.26644 | 33767 ft | 405 kts | 295° |
| 2026-05-06 05:39 | -11.02243 | 128.24123 | 33525 ft | 405 kts | 296° |
| 2026-05-06 05:39 | -11.00900 | 128.21602 | 33268 ft | 406 kts | 296° |
| 2026-05-06 05:39 | -10.99553 | 128.19075 | 33020 ft | 406 kts | 296° |
| 2026-05-06 05:39 | -10.98207 | 128.16550 | 32773 ft | 406 kts | 296° |
| 2026-05-06 05:40 | -10.96856 | 128.14016 | 32528 ft | 407 kts | 296° |
| 2026-05-06 05:40 | -10.95509 | 128.11489 | 32279 ft | 407 kts | 296° |
| 2026-05-06 05:40 | -10.94157 | 128.08956 | 32045 ft | 407 kts | 296° |
| 2026-05-06 05:40 | -10.92805 | 128.06422 | 31809 ft | 408 kts | 296° |
| 2026-05-06 05:41 | -10.91451 | 128.03885 | 31575 ft | 408 kts | 296° |
| 2026-05-06 05:41 | -10.90093 | 128.01341 | 31338 ft | 409 kts | 296° |
| 2026-05-06 05:41 | -10.88737 | 127.98801 | 31113 ft | 409 kts | 296° |
| 2026-05-06 05:41 | -10.87392 | 127.96283 | 30886 ft | 410 kts | 297° |
| 2026-05-06 05:42 | -10.86009 | 127.93696 | 30654 ft | 411 kts | 297° |
| 2026-05-06 05:42 | -10.84661 | 127.91173 | 30438 ft | 412 kts | 297° |
| 2026-05-06 05:42 | -10.83291 | 127.88608 | 30213 ft | 413 kts | 297° |
| 2026-05-06 05:42 | -10.81915 | 127.86035 | 29985 ft | 414 kts | 297° |
| 2026-05-06 05:43 | -10.80535 | 127.83456 | 29731 ft | 415 kts | 297° |
| 2026-05-06 05:43 | -10.79156 | 127.80877 | 29484 ft | 416 kts | 297° |
| 2026-05-06 05:43 | -10.77766 | 127.78279 | 29210 ft | 417 kts | 297° |
| 2026-05-06 05:43 | -10.76380 | 127.75690 | 28951 ft | 418 kts | 297° |
| 2026-05-06 05:44 | -10.74984 | 127.73082 | 28697 ft | 419 kts | 297° |
| 2026-05-06 05:44 | -10.73608 | 127.70511 | 28448 ft | 420 kts | 297° |
| 2026-05-06 05:44 | -10.72206 | 127.67895 | 28196 ft | 421 kts | 297° |
| 2026-05-06 05:44 | -10.70803 | 127.65275 | 27951 ft | 422 kts | 297° |
| 2026-05-06 05:45 | -10.69398 | 127.62652 | 27710 ft | 423 kts | 297° |
| 2026-05-06 05:45 | -10.67984 | 127.60014 | 27461 ft | 424 kts | 297° |
| 2026-05-06 05:45 | -10.66570 | 127.57377 | 27225 ft | 426 kts | 297° |
| 2026-05-06 05:45 | -10.65153 | 127.54735 | 26985 ft | 427 kts | 297° |
| 2026-05-06 05:46 | -10.63731 | 127.52084 | 26748 ft | 427 kts | 298° |
| 2026-05-06 05:46 | -10.62305 | 127.49426 | 26513 ft | 428 kts | 298° |
| 2026-05-06 05:46 | -10.60879 | 127.46768 | 26279 ft | 429 kts | 298° |
| 2026-05-06 05:46 | -10.59444 | 127.44095 | 26050 ft | 430 kts | 298° |
| 2026-05-06 05:47 | -10.58013 | 127.41429 | 25818 ft | 431 kts | 298° |
| 2026-05-06 05:47 | -10.56571 | 127.38744 | 25593 ft | 432 kts | 298° |
| 2026-05-06 05:47 | -10.55130 | 127.36061 | 25363 ft | 432 kts | 298° |
| 2026-05-06 05:47 | -10.53688 | 127.33377 | 25143 ft | 433 kts | 298° |
| 2026-05-06 05:48 | -10.52244 | 127.30689 | 24920 ft | 433 kts | 298° |
| 2026-05-06 05:48 | -10.50800 | 127.28002 | 24701 ft | 434 kts | 298° |
| 2026-05-06 05:48 | -10.49367 | 127.25336 | 24482 ft | 434 kts | 298° |
| 2026-05-06 05:48 | -10.47918 | 127.22642 | 24266 ft | 435 kts | 298° |
| 2026-05-06 05:49 | -10.46463 | 127.19937 | 24050 ft | 436 kts | 298° |
| 2026-05-06 05:49 | -10.45104 | 127.17181 | 23930 ft | 438 kts | 289° |
| 2026-05-06 05:49 | -10.44513 | 127.14154 | 23906 ft | 438 kts | 272° |
| 2026-05-06 05:49 | -10.44743 | 127.11058 | 23893 ft | 441 kts | 259° |
| 2026-05-06 05:50 | -10.45760 | 127.08123 | 23899 ft | 442 kts | 244° |
| 2026-05-06 05:50 | -10.47186 | 127.05390 | 23899 ft | 443 kts | 242° |
| 2026-05-06 05:50 | -10.48696 | 127.02655 | 23887 ft | 443 kts | 242° |
| 2026-05-06 05:50 | -10.50223 | 126.99934 | 23888 ft | 444 kts | 242° |
| 2026-05-06 05:51 | -10.51748 | 126.97209 | 23886 ft | 443 kts | 242° |
| 2026-05-06 05:51 | -10.53267 | 126.94470 | 23888 ft | 443 kts | 242° |
| 2026-05-06 05:51 | -10.54768 | 126.91734 | 23888 ft | 443 kts | 242° |
| 2026-05-06 05:51 | -10.56260 | 126.88994 | 23893 ft | 443 kts | 242° |
| 2026-05-06 05:52 | -10.57747 | 126.86252 | 23895 ft | 442 kts | 242° |
| 2026-05-06 05:52 | -10.59227 | 126.83513 | 23895 ft | 442 kts | 242° |
| 2026-05-06 05:52 | -10.60688 | 126.80807 | 23892 ft | 442 kts | 242° |
| 2026-05-06 05:52 | -10.62167 | 126.78065 | 23893 ft | 442 kts | 242° |
| 2026-05-06 05:53 | -10.63648 | 126.75318 | 23894 ft | 442 kts | 242° |
| 2026-05-06 05:53 | -10.65125 | 126.72580 | 23893 ft | 442 kts | 242° |
| 2026-05-06 05:53 | -10.66602 | 126.69843 | 23892 ft | 442 kts | 242° |
| 2026-05-06 05:53 | -10.68081 | 126.67101 | 23895 ft | 441 kts | 242° |
| 2026-05-06 05:54 | -10.69555 | 126.64365 | 23892 ft | 441 kts | 242° |
| 2026-05-06 05:54 | -10.71033 | 126.61624 | 23889 ft | 441 kts | 242° |
| 2026-05-06 05:54 | -10.72509 | 126.58885 | 23892 ft | 441 kts | 242° |
| 2026-05-06 05:54 | -10.73982 | 126.56151 | 23893 ft | 441 kts | 242° |
| 2026-05-06 05:55 | -10.75455 | 126.53416 | 23893 ft | 441 kts | 242° |
| 2026-05-06 05:55 | -10.76911 | 126.50714 | 23892 ft | 441 kts | 242° |
| 2026-05-06 05:55 | -10.78385 | 126.47975 | 23893 ft | 441 kts | 242° |
| 2026-05-06 05:55 | -10.79856 | 126.45242 | 23894 ft | 441 kts | 242° |
| 2026-05-06 05:56 | -10.81327 | 126.42509 | 23893 ft | 440 kts | 242° |
| 2026-05-06 05:56 | -10.82801 | 126.39768 | 23892 ft | 440 kts | 242° |
| 2026-05-06 05:56 | -10.84270 | 126.37036 | 23894 ft | 440 kts | 242° |
| 2026-05-06 05:56 | -10.85745 | 126.34293 | 23897 ft | 440 kts | 242° |
| 2026-05-06 05:57 | -10.87214 | 126.31560 | 23895 ft | 440 kts | 242° |
| 2026-05-06 05:57 | -10.88665 | 126.28860 | 23895 ft | 440 kts | 242° |
| 2026-05-06 05:57 | -10.90131 | 126.26132 | 23893 ft | 439 kts | 242° |
| 2026-05-06 05:57 | -10.91597 | 126.23402 | 23892 ft | 439 kts | 242° |
| 2026-05-06 05:58 | -10.93061 | 126.20675 | 23895 ft | 439 kts | 242° |
| 2026-05-06 05:58 | -10.94528 | 126.17943 | 23893 ft | 439 kts | 242° |
| 2026-05-06 05:58 | -10.95991 | 126.15216 | 23896 ft | 439 kts | 242° |
| 2026-05-06 05:58 | -10.97455 | 126.12487 | 23891 ft | 439 kts | 242° |
| 2026-05-06 05:59 | -10.98917 | 126.09763 | 23895 ft | 439 kts | 242° |
| 2026-05-06 05:59 | -11.00378 | 126.07038 | 23893 ft | 438 kts | 242° |
| 2026-05-06 05:59 | -11.01840 | 126.04311 | 23893 ft | 438 kts | 242° |
| 2026-05-06 05:59 | -11.03302 | 126.01583 | 23893 ft | 438 kts | 242° |
| 2026-05-06 06:00 | -11.04761 | 125.98860 | 23892 ft | 438 kts | 242° |
| 2026-05-06 06:00 | -11.06221 | 125.96134 | 23895 ft | 438 kts | 242° |
| 2026-05-06 06:00 | -11.07679 | 125.93412 | 23892 ft | 438 kts | 242° |
| 2026-05-06 06:00 | -11.09118 | 125.90725 | 23891 ft | 438 kts | 242° |
| 2026-05-06 06:01 | -11.10576 | 125.88000 | 23891 ft | 438 kts | 242° |
| 2026-05-06 06:01 | -11.12032 | 125.85280 | 23893 ft | 438 kts | 242° |
| 2026-05-06 06:01 | -11.13491 | 125.82551 | 23890 ft | 438 kts | 242° |
| 2026-05-06 06:01 | -11.14946 | 125.79831 | 23894 ft | 438 kts | 242° |
| 2026-05-06 06:02 | -11.16405 | 125.77102 | 23891 ft | 438 kts | 242° |
| 2026-05-06 06:02 | -11.17861 | 125.74378 | 23892 ft | 438 kts | 243° |
| 2026-05-06 06:02 | -11.19318 | 125.71653 | 23889 ft | 437 kts | 243° |
| 2026-05-06 06:02 | -11.20754 | 125.68965 | 23892 ft | 437 kts | 243° |
| 2026-05-06 06:03 | -11.22208 | 125.66242 | 23893 ft | 437 kts | 243° |
| 2026-05-06 06:03 | -11.23659 | 125.63525 | 23893 ft | 437 kts | 243° |
| 2026-05-06 06:03 | -11.25112 | 125.60802 | 23897 ft | 437 kts | 243° |
| 2026-05-06 06:03 | -11.26563 | 125.58083 | 23893 ft | 437 kts | 243° |
| 2026-05-06 06:04 | -11.28020 | 125.55353 | 23891 ft | 437 kts | 243° |
| 2026-05-06 06:04 | -11.29469 | 125.52636 | 23892 ft | 437 kts | 243° |
| 2026-05-06 06:04 | -11.30921 | 125.49913 | 23893 ft | 437 kts | 243° |
| 2026-05-06 06:04 | -11.32370 | 125.47194 | 23892 ft | 437 kts | 243° |
| 2026-05-06 06:05 | -11.33822 | 125.44470 | 23892 ft | 437 kts | 243° |
| 2026-05-06 06:05 | -11.35272 | 125.41750 | 23889 ft | 436 kts | 243° |
| 2026-05-06 06:05 | -11.36720 | 125.39030 | 23889 ft | 436 kts | 243° |
| 2026-05-06 06:05 | -11.38166 | 125.36315 | 23890 ft | 436 kts | 243° |
| 2026-05-06 06:06 | -11.39615 | 125.33594 | 23889 ft | 436 kts | 243° |
| 2026-05-06 06:06 | -11.41062 | 125.30874 | 23889 ft | 436 kts | 243° |
| 2026-05-06 06:06 | -11.42489 | 125.28193 | 23892 ft | 436 kts | 243° |
| 2026-05-06 06:06 | -11.43930 | 125.25483 | 23893 ft | 436 kts | 243° |
| 2026-05-06 06:07 | -11.45376 | 125.22764 | 23889 ft | 436 kts | 243° |
| 2026-05-06 06:07 | -11.46819 | 125.20049 | 23890 ft | 435 kts | 243° |
| 2026-05-06 06:07 | -11.48263 | 125.17332 | 23887 ft | 435 kts | 243° |
| 2026-05-06 06:07 | -11.49707 | 125.14615 | 23887 ft | 435 kts | 243° |
| 2026-05-06 06:08 | -11.51150 | 125.11898 | 23888 ft | 435 kts | 243° |
| 2026-05-06 06:08 | -11.52588 | 125.09190 | 23887 ft | 435 kts | 243° |
| 2026-05-06 06:08 | -11.54032 | 125.06470 | 23891 ft | 435 kts | 243° |
| 2026-05-06 06:08 | -11.55475 | 125.03752 | 23891 ft | 435 kts | 243° |
| 2026-05-06 06:09 | -11.56911 | 125.01044 | 23893 ft | 435 kts | 243° |
| 2026-05-06 06:09 | -11.58352 | 124.98328 | 23893 ft | 435 kts | 243° |
| 2026-05-06 06:09 | -11.59791 | 124.95615 | 23890 ft | 435 kts | 243° |
| 2026-05-06 06:09 | -11.61211 | 124.92937 | 23893 ft | 435 kts | 243° |
| 2026-05-06 06:10 | -11.62647 | 124.90226 | 23891 ft | 435 kts | 243° |
| 2026-05-06 06:10 | -11.64087 | 124.87509 | 23892 ft | 435 kts | 243° |
| 2026-05-06 06:10 | -11.65525 | 124.84794 | 23892 ft | 435 kts | 243° |
| 2026-05-06 06:10 | -11.66963 | 124.82079 | 23892 ft | 435 kts | 243° |
| 2026-05-06 06:11 | -11.68402 | 124.79359 | 23893 ft | 435 kts | 243° |
| 2026-05-06 06:11 | -11.69838 | 124.76645 | 23889 ft | 434 kts | 243° |
| 2026-05-06 06:11 | -11.71274 | 124.73931 | 23886 ft | 434 kts | 243° |
| 2026-05-06 06:11 | -11.72695 | 124.71244 | 23885 ft | 434 kts | 243° |
| 2026-05-06 06:12 | -11.74129 | 124.68531 | 23893 ft | 434 kts | 243° |
| 2026-05-06 06:12 | -11.75562 | 124.65822 | 23888 ft | 434 kts | 243° |
| 2026-05-06 06:12 | -11.77005 | 124.63115 | 23885 ft | 434 kts | 242° |
| 2026-05-06 06:12 | -11.78478 | 124.60424 | 23889 ft | 434 kts | 242° |
| 2026-05-06 06:13 | -11.79965 | 124.57740 | 23888 ft | 434 kts | 242° |
| 2026-05-06 06:13 | -11.81455 | 124.55060 | 23888 ft | 434 kts | 242° |
| 2026-05-06 06:13 | -11.82943 | 124.52378 | 23889 ft | 434 kts | 242° |
| 2026-05-06 06:13 | -11.84430 | 124.49694 | 23887 ft | 434 kts | 242° |
| 2026-05-06 06:14 | -11.85911 | 124.47014 | 23890 ft | 434 kts | 242° |
| 2026-05-06 06:14 | -11.87391 | 124.44332 | 23888 ft | 433 kts | 242° |
| 2026-05-06 06:14 | -11.88870 | 124.41647 | 23886 ft | 433 kts | 242° |
| 2026-05-06 06:14 | -11.90327 | 124.39001 | 23889 ft | 433 kts | 242° |
| 2026-05-06 06:15 | -11.91807 | 124.36311 | 23887 ft | 433 kts | 242° |
| 2026-05-06 06:15 | -11.93283 | 124.33629 | 23889 ft | 433 kts | 242° |
| 2026-05-06 06:15 | -11.94759 | 124.30945 | 23884 ft | 433 kts | 242° |
| 2026-05-06 06:15 | -11.96236 | 124.28259 | 23887 ft | 433 kts | 242° |
| 2026-05-06 06:16 | -11.97711 | 124.25575 | 23888 ft | 433 kts | 242° |
| 2026-05-06 06:16 | -11.99187 | 124.22890 | 23890 ft | 433 kts | 242° |
| 2026-05-06 06:16 | -12.00643 | 124.20241 | 23889 ft | 433 kts | 242° |
| 2026-05-06 06:16 | -12.01639 | 124.18428 | 23888 ft | 433 kts | 242° |
| 2026-05-06 06:17 | -12.03591 | 124.14874 | 23887 ft | 433 kts | 242° |
| 2026-05-06 06:17 | -12.05065 | 124.12189 | 23888 ft | 433 kts | 242° |
| 2026-05-06 06:17 | -12.06535 | 124.09510 | 23888 ft | 433 kts | 242° |
| 2026-05-06 06:17 | -12.08008 | 124.06826 | 23888 ft | 433 kts | 242° |
| 2026-05-06 06:18 | -12.09483 | 124.04137 | 23886 ft | 433 kts | 242° |
| 2026-05-06 06:18 | -12.10454 | 124.02367 | 23888 ft | 433 kts | 242° |
| 2026-05-06 06:18 | -12.11923 | 123.99687 | 23884 ft | 432 kts | 242° |
| 2026-05-06 06:18 | -12.13403 | 123.96986 | 23885 ft | 432 kts | 242° |
| 2026-05-06 06:19 | -12.14872 | 123.94306 | 23885 ft | 432 kts | 242° |
| 2026-05-06 06:19 | -12.16339 | 123.91628 | 23886 ft | 432 kts | 242° |
| 2026-05-06 06:19 | -12.17807 | 123.88947 | 23885 ft | 432 kts | 242° |
| 2026-05-06 06:19 | -12.19275 | 123.86265 | 23885 ft | 432 kts | 242° |
| 2026-05-06 06:20 | -12.20741 | 123.83588 | 23884 ft | 432 kts | 242° |
| 2026-05-06 06:20 | -12.22208 | 123.80907 | 23883 ft | 432 kts | 242° |
| 2026-05-06 06:20 | -12.23672 | 123.78230 | 23885 ft | 431 kts | 242° |
| 2026-05-06 06:20 | -12.25139 | 123.75548 | 23882 ft | 431 kts | 242° |
| 2026-05-06 06:21 | -12.26601 | 123.72873 | 23883 ft | 431 kts | 242° |
| 2026-05-06 06:21 | -12.28061 | 123.70201 | 23884 ft | 431 kts | 242° |
| 2026-05-06 06:21 | -12.29528 | 123.67516 | 23881 ft | 431 kts | 242° |
| 2026-05-06 06:21 | -12.30973 | 123.64871 | 23883 ft | 431 kts | 242° |
| 2026-05-06 06:22 | -12.32433 | 123.62197 | 23881 ft | 431 kts | 242° |
| 2026-05-06 06:22 | -12.33894 | 123.59521 | 23881 ft | 431 kts | 243° |
| 2026-05-06 06:22 | -12.35355 | 123.56843 | 23885 ft | 431 kts | 243° |
| 2026-05-06 06:22 | -12.36817 | 123.54164 | 23885 ft | 431 kts | 243° |
| 2026-05-06 06:23 | -12.38276 | 123.51489 | 23884 ft | 430 kts | 243° |
| 2026-05-06 06:23 | -12.39735 | 123.48812 | 23884 ft | 430 kts | 243° |
| 2026-05-06 06:23 | -12.41194 | 123.46135 | 23885 ft | 430 kts | 243° |
| 2026-05-06 06:23 | -12.42651 | 123.43460 | 23882 ft | 430 kts | 243° |
| 2026-05-06 06:24 | -12.44107 | 123.40788 | 23884 ft | 430 kts | 243° |
| 2026-05-06 06:24 | -12.45563 | 123.38114 | 23886 ft | 430 kts | 243° |
| 2026-05-06 06:24 | -12.46980 | 123.35417 | 23879 ft | 429 kts | 247° |
| 2026-05-06 06:24 | -12.48013 | 123.32607 | 23885 ft | 427 kts | 255° |
| 2026-05-06 06:25 | -12.48673 | 123.29656 | 23877 ft | 426 kts | 263° |
| 2026-05-06 06:25 | -12.48935 | 123.26632 | 23887 ft | 425 kts | 266° |
| 2026-05-06 06:25 | -12.49312 | 123.20595 | 23881 ft | 425 kts | 267° |
| 2026-05-06 06:26 | -12.49497 | 123.17571 | 23882 ft | 425 kts | 267° |
| 2026-05-06 06:26 | -12.49689 | 123.14551 | 23882 ft | 425 kts | 267° |
| 2026-05-06 06:26 | -12.49886 | 123.11536 | 23883 ft | 425 kts | 266° |
| 2026-05-06 06:26 | -12.50088 | 123.08509 | 23881 ft | 426 kts | 266° |
| 2026-05-06 06:27 | -12.50294 | 123.05482 | 23883 ft | 426 kts | 266° |
| 2026-05-06 06:27 | -12.50500 | 123.02463 | 23881 ft | 426 kts | 266° |
| 2026-05-06 06:27 | -12.50707 | 122.99439 | 23881 ft | 426 kts | 266° |
| 2026-05-06 06:27 | -12.50914 | 122.96418 | 23882 ft | 425 kts | 266° |
| 2026-05-06 06:28 | -12.51121 | 122.93394 | 23880 ft | 425 kts | 266° |
| 2026-05-06 06:28 | -12.51327 | 122.90373 | 23879 ft | 425 kts | 266° |
| 2026-05-06 06:28 | -12.51532 | 122.87354 | 23880 ft | 425 kts | 266° |
| 2026-05-06 06:28 | -12.51735 | 122.84365 | 23881 ft | 425 kts | 266° |
| 2026-05-06 06:29 | -12.51940 | 122.81343 | 23881 ft | 425 kts | 266° |
| 2026-05-06 06:29 | -12.52144 | 122.78327 | 23884 ft | 425 kts | 266° |
| 2026-05-06 06:29 | -12.52348 | 122.75307 | 23881 ft | 425 kts | 266° |
| 2026-05-06 06:29 | -12.52551 | 122.72287 | 23881 ft | 425 kts | 266° |
| 2026-05-06 06:30 | -12.52755 | 122.69267 | 23878 ft | 425 kts | 266° |
| 2026-05-06 06:30 | -12.52958 | 122.66248 | 23879 ft | 425 kts | 266° |
| 2026-05-06 06:30 | -12.53160 | 122.63226 | 23879 ft | 425 kts | 266° |
| 2026-05-06 06:30 | -12.53363 | 122.60208 | 23880 ft | 425 kts | 266° |
| 2026-05-06 06:31 | -12.53564 | 122.57191 | 23877 ft | 425 kts | 266° |
| 2026-05-06 06:31 | -12.53765 | 122.54176 | 23878 ft | 425 kts | 266° |
| 2026-05-06 06:31 | -12.53964 | 122.51198 | 23879 ft | 425 kts | 267° |
| 2026-05-06 06:31 | -12.54164 | 122.48183 | 23878 ft | 425 kts | 267° |
| 2026-05-06 06:32 | -12.54365 | 122.45163 | 23880 ft | 424 kts | 267° |
| 2026-05-06 06:32 | -12.54565 | 122.42151 | 23879 ft | 424 kts | 267° |
| 2026-05-06 06:32 | -12.54764 | 122.39135 | 23878 ft | 424 kts | 267° |
| 2026-05-06 06:32 | -12.54963 | 122.36125 | 23877 ft | 424 kts | 267° |
| 2026-05-06 06:33 | -12.55162 | 122.33105 | 23877 ft | 424 kts | 267° |
| 2026-05-06 06:33 | -12.55361 | 122.30095 | 23878 ft | 424 kts | 267° |
| 2026-05-06 06:33 | -12.55558 | 122.27087 | 23879 ft | 424 kts | 267° |
| 2026-05-06 06:33 | -12.55756 | 122.24072 | 23875 ft | 424 kts | 267° |
| 2026-05-06 06:34 | -12.55954 | 122.21057 | 23876 ft | 424 kts | 267° |
| 2026-05-06 06:34 | -12.56151 | 122.18044 | 23876 ft | 424 kts | 267° |
| 2026-05-06 06:34 | -12.56347 | 122.15036 | 23877 ft | 424 kts | 267° |
| 2026-05-06 06:34 | -12.56542 | 122.12054 | 23878 ft | 424 kts | 267° |
| 2026-05-06 06:35 | -12.56737 | 122.09042 | 23878 ft | 424 kts | 267° |
| 2026-05-06 06:35 | -12.56933 | 122.06026 | 23879 ft | 424 kts | 267° |
| 2026-05-06 06:35 | -12.57129 | 122.03009 | 23877 ft | 424 kts | 267° |
| 2026-05-06 06:35 | -12.57324 | 121.99996 | 23878 ft | 424 kts | 267° |
| 2026-05-06 06:36 | -12.57519 | 121.96979 | 23878 ft | 424 kts | 267° |
| 2026-05-06 06:36 | -12.57713 | 121.93970 | 23877 ft | 424 kts | 267° |
| 2026-05-06 06:36 | -12.57907 | 121.90962 | 23876 ft | 424 kts | 267° |
| 2026-05-06 06:36 | -12.58101 | 121.87948 | 23875 ft | 424 kts | 267° |
| 2026-05-06 06:37 | -12.58291 | 121.84977 | 23879 ft | 424 kts | 267° |
| 2026-05-06 06:37 | -12.58484 | 121.81961 | 23876 ft | 424 kts | 267° |
| 2026-05-06 06:37 | -12.58677 | 121.78955 | 23875 ft | 424 kts | 267° |
| 2026-05-06 06:37 | -12.58869 | 121.75940 | 23875 ft | 423 kts | 267° |
| 2026-05-06 06:38 | -12.59061 | 121.72934 | 23875 ft | 423 kts | 267° |
| 2026-05-06 06:38 | -12.59252 | 121.69923 | 23873 ft | 423 kts | 267° |
| 2026-05-06 06:38 | -12.59443 | 121.66915 | 23874 ft | 423 kts | 267° |
| 2026-05-06 06:38 | -12.59634 | 121.63906 | 23875 ft | 423 kts | 267° |
| 2026-05-06 06:39 | -12.59824 | 121.60896 | 23875 ft | 423 kts | 267° |
| 2026-05-06 06:39 | -12.60012 | 121.57925 | 23873 ft | 423 kts | 267° |
| 2026-05-06 06:39 | -12.60201 | 121.54916 | 23875 ft | 423 kts | 267° |
| 2026-05-06 06:39 | -12.60391 | 121.51900 | 23871 ft | 423 kts | 267° |
| 2026-05-06 06:40 | -12.60580 | 121.48897 | 23875 ft | 423 kts | 267° |
| 2026-05-06 06:40 | -12.60769 | 121.45884 | 23873 ft | 423 kts | 267° |
| 2026-05-06 06:40 | -12.60957 | 121.42880 | 23874 ft | 423 kts | 267° |
| 2026-05-06 06:40 | -12.61145 | 121.39868 | 23874 ft | 423 kts | 267° |
| 2026-05-06 06:41 | -12.61332 | 121.36865 | 23874 ft | 423 kts | 267° |
| 2026-05-06 06:41 | -12.61519 | 121.33855 | 23873 ft | 423 kts | 267° |
| 2026-05-06 06:41 | -12.61706 | 121.30859 | 23874 ft | 422 kts | 267° |
| 2026-05-06 06:41 | -12.61892 | 121.27856 | 23874 ft | 422 kts | 267° |
| 2026-05-06 06:42 | -12.62078 | 121.24848 | 23874 ft | 422 kts | 267° |
| 2026-05-06 06:42 | -12.62263 | 121.21851 | 23871 ft | 422 kts | 267° |
| 2026-05-06 06:42 | -12.62448 | 121.18854 | 23871 ft | 422 kts | 267° |
| 2026-05-06 06:42 | -12.62632 | 121.15861 | 23877 ft | 422 kts | 267° |
| 2026-05-06 06:43 | -12.62816 | 121.12864 | 23874 ft | 422 kts | 267° |
| 2026-05-06 06:43 | -12.63001 | 121.09860 | 23872 ft | 422 kts | 267° |
| 2026-05-06 06:43 | -12.63184 | 121.06864 | 23873 ft | 421 kts | 267° |
| 2026-05-06 06:43 | -12.63367 | 121.03865 | 23871 ft | 421 kts | 267° |
| 2026-05-06 06:44 | -12.63548 | 121.00908 | 23870 ft | 421 kts | 267° |
| 2026-05-06 06:44 | -12.63730 | 120.97910 | 23871 ft | 421 kts | 267° |
| 2026-05-06 06:44 | -12.63912 | 120.94918 | 23872 ft | 421 kts | 267° |
| 2026-05-06 06:44 | -12.64094 | 120.91916 | 23871 ft | 421 kts | 267° |
| 2026-05-06 06:45 | -12.64276 | 120.88919 | 23870 ft | 421 kts | 267° |
| 2026-05-06 06:45 | -12.64457 | 120.85923 | 23876 ft | 421 kts | 267° |
| 2026-05-06 06:45 | -12.64638 | 120.82929 | 23874 ft | 421 kts | 267° |
| 2026-05-06 06:45 | -12.64815 | 120.79975 | 23874 ft | 421 kts | 267° |
| 2026-05-06 06:46 | -12.64995 | 120.76980 | 23873 ft | 421 kts | 267° |
| 2026-05-06 06:46 | -12.65175 | 120.73986 | 23872 ft | 421 kts | 267° |
| 2026-05-06 06:46 | -12.65354 | 120.70996 | 23874 ft | 421 kts | 267° |
| 2026-05-06 06:46 | -12.65534 | 120.67994 | 23874 ft | 421 kts | 267° |
| 2026-05-06 06:47 | -12.65713 | 120.64997 | 23875 ft | 421 kts | 266° |
| 2026-05-06 06:47 | -12.66275 | 120.62056 | 23868 ft | 424 kts | 251° |
| 2026-05-06 06:47 | -12.67666 | 120.59387 | 23878 ft | 428 kts | 236° |
| 2026-05-06 06:47 | -12.69727 | 120.57177 | 23879 ft | 433 kts | 221° |
| 2026-05-06 06:48 | -12.72319 | 120.55569 | 23884 ft | 440 kts | 207° |
| 2026-05-06 06:48 | -12.75272 | 120.54684 | 23872 ft | 448 kts | 191° |
| 2026-05-06 06:48 | -12.78397 | 120.54460 | 23884 ft | 451 kts | 186° |
| 2026-05-06 06:48 | -12.81498 | 120.54356 | 23875 ft | 452 kts | 185° |
| 2026-05-06 06:49 | -12.84642 | 120.54286 | 23870 ft | 452 kts | 185° |
| 2026-05-06 06:49 | -12.87794 | 120.54219 | 23869 ft | 452 kts | 185° |
| 2026-05-06 06:49 | -12.90933 | 120.54141 | 23872 ft | 451 kts | 185° |
| 2026-05-06 06:49 | -12.94075 | 120.54049 | 23873 ft | 451 kts | 186° |
| 2026-05-06 06:50 | -12.97213 | 120.53945 | 23875 ft | 451 kts | 186° |
| 2026-05-06 06:50 | -13.00355 | 120.53833 | 23877 ft | 451 kts | 186° |
| 2026-05-06 06:50 | -13.03486 | 120.53718 | 23877 ft | 450 kts | 186° |
| 2026-05-06 06:50 | -13.06622 | 120.53600 | 23881 ft | 450 kts | 186° |
| 2026-05-06 06:51 | -13.09751 | 120.53482 | 23880 ft | 450 kts | 186° |
| 2026-05-06 06:51 | -13.12878 | 120.53364 | 23880 ft | 450 kts | 186° |
| 2026-05-06 06:51 | -13.16008 | 120.53247 | 23878 ft | 450 kts | 186° |
| 2026-05-06 06:51 | -13.19131 | 120.53130 | 23879 ft | 449 kts | 186° |
| 2026-05-06 06:52 | -13.22261 | 120.53013 | 23880 ft | 449 kts | 186° |
| 2026-05-06 06:52 | -13.25340 | 120.52898 | 23881 ft | 449 kts | 186° |
| 2026-05-06 06:52 | -13.28469 | 120.52781 | 23880 ft | 449 kts | 186° |
| 2026-05-06 06:52 | -13.31595 | 120.52664 | 23881 ft | 449 kts | 186° |
| 2026-05-06 06:53 | -13.34728 | 120.52547 | 23881 ft | 449 kts | 186° |
| 2026-05-06 06:53 | -13.37847 | 120.52431 | 23881 ft | 449 kts | 186° |
| 2026-05-06 06:53 | -13.40973 | 120.52314 | 23878 ft | 449 kts | 186° |
| 2026-05-06 06:53 | -13.44057 | 120.52199 | 23877 ft | 448 kts | 186° |
| 2026-05-06 06:54 | -13.47179 | 120.52082 | 23882 ft | 448 kts | 186° |
| 2026-05-06 06:54 | -13.50294 | 120.51966 | 23880 ft | 448 kts | 186° |
| 2026-05-06 06:54 | -13.53425 | 120.51849 | 23881 ft | 448 kts | 186° |
| 2026-05-06 06:54 | -13.56547 | 120.51732 | 23879 ft | 448 kts | 186° |
| 2026-05-06 06:55 | -13.59668 | 120.51615 | 23881 ft | 448 kts | 187° |
| 2026-05-06 06:55 | -13.62783 | 120.51498 | 23883 ft | 448 kts | 187° |
| 2026-05-06 06:55 | -13.65897 | 120.51382 | 23888 ft | 448 kts | 187° |
| 2026-05-06 06:55 | -13.69019 | 120.51265 | 23885 ft | 448 kts | 187° |
| 2026-05-06 06:56 | -13.72136 | 120.51148 | 23881 ft | 448 kts | 187° |
| 2026-05-06 06:56 | -13.75257 | 120.51031 | 23885 ft | 448 kts | 187° |
| 2026-05-06 06:56 | -13.78334 | 120.50916 | 23888 ft | 448 kts | 187° |
| 2026-05-06 06:56 | -13.81450 | 120.50799 | 23887 ft | 448 kts | 187° |
| 2026-05-06 06:57 | -13.84567 | 120.50682 | 23887 ft | 448 kts | 187° |
| 2026-05-06 06:57 | -13.87687 | 120.50565 | 23881 ft | 448 kts | 187° |
| 2026-05-06 06:57 | -13.90802 | 120.50448 | 23887 ft | 448 kts | 187° |
| 2026-05-06 06:57 | -13.93913 | 120.50331 | 23881 ft | 448 kts | 187° |
| 2026-05-06 06:58 | -13.97030 | 120.50214 | 23897 ft | 448 kts | 187° |
| 2026-05-06 06:58 | -14.00142 | 120.50098 | 23887 ft | 448 kts | 187° |
| 2026-05-06 06:58 | -14.03260 | 120.49980 | 23895 ft | 448 kts | 187° |
| 2026-05-06 06:58 | -14.06375 | 120.49863 | 23884 ft | 448 kts | 187° |
| 2026-05-06 06:59 | -14.09496 | 120.49746 | 23883 ft | 448 kts | 187° |
| 2026-05-06 06:59 | -14.12613 | 120.49629 | 23887 ft | 448 kts | 187° |
| 2026-05-06 06:59 | -14.15695 | 120.49513 | 23887 ft | 448 kts | 187° |
| 2026-05-06 06:59 | -14.18815 | 120.49396 | 23887 ft | 448 kts | 187° |
| 2026-05-06 07:00 | -14.21932 | 120.49278 | 23884 ft | 448 kts | 187° |
| 2026-05-06 07:00 | -14.25053 | 120.49161 | 23886 ft | 448 kts | 187° |
| 2026-05-06 07:00 | -14.28172 | 120.49043 | 23883 ft | 448 kts | 187° |
| 2026-05-06 07:00 | -14.31288 | 120.48926 | 23885 ft | 448 kts | 187° |
| 2026-05-06 07:01 | -14.34415 | 120.48808 | 23885 ft | 448 kts | 187° |
| 2026-05-06 07:01 | -14.37532 | 120.48691 | 23889 ft | 448 kts | 187° |
| 2026-05-06 07:01 | -14.40651 | 120.48573 | 23885 ft | 448 kts | 187° |
| 2026-05-06 07:01 | -14.43767 | 120.48456 | 23886 ft | 448 kts | 187° |
| 2026-05-06 07:02 | -14.46881 | 120.48338 | 23886 ft | 448 kts | 187° |
| 2026-05-06 07:02 | -14.49999 | 120.48221 | 23886 ft | 448 kts | 187° |
| 2026-05-06 07:02 | -14.53114 | 120.48103 | 23880 ft | 448 kts | 187° |
| 2026-05-06 07:02 | -14.56234 | 120.47986 | 23887 ft | 448 kts | 187° |
| 2026-05-06 07:03 | -14.59313 | 120.47870 | 23888 ft | 448 kts | 187° |
| 2026-05-06 07:03 | -14.62433 | 120.47752 | 23887 ft | 448 kts | 187° |
| 2026-05-06 07:03 | -14.65548 | 120.47634 | 23893 ft | 448 kts | 187° |
| 2026-05-06 07:03 | -14.68672 | 120.47516 | 23890 ft | 448 kts | 188° |
| 2026-05-06 07:04 | -14.70734 | 120.47438 | 23890 ft | 448 kts | 188° |
| 2026-05-06 07:04 | -14.74911 | 120.47280 | 23889 ft | 448 kts | 188° |
| 2026-05-06 07:04 | -14.78031 | 120.47162 | 23891 ft | 448 kts | 188° |
| 2026-05-06 07:04 | -14.80093 | 120.47084 | 23890 ft | 448 kts | 188° |
| 2026-05-06 07:05 | -14.83204 | 120.46967 | 23891 ft | 447 kts | 188° |
| 2026-05-06 07:05 | -14.86314 | 120.46849 | 23890 ft | 447 kts | 188° |
| 2026-05-06 07:05 | -14.89429 | 120.46731 | 23891 ft | 447 kts | 188° |
| 2026-05-06 07:05 | -14.92540 | 120.46613 | 23892 ft | 446 kts | 188° |
| 2026-05-06 07:06 | -14.95604 | 120.46497 | 23890 ft | 446 kts | 188° |
| 2026-05-06 07:06 | -14.98712 | 120.46380 | 23894 ft | 446 kts | 188° |
| 2026-05-06 07:06 | -15.01814 | 120.46262 | 23894 ft | 445 kts | 188° |
| 2026-05-06 07:06 | -15.04910 | 120.46145 | 23895 ft | 445 kts | 188° |
| 2026-05-06 07:07 | -15.08006 | 120.46027 | 23896 ft | 445 kts | 188° |
| 2026-05-06 07:07 | -15.11107 | 120.45909 | 23892 ft | 445 kts | 188° |
| 2026-05-06 07:07 | -15.14202 | 120.45792 | 23890 ft | 445 kts | 188° |
| 2026-05-06 07:07 | -15.17300 | 120.45674 | 23892 ft | 445 kts | 188° |
| 2026-05-06 07:08 | -15.20395 | 120.45557 | 23890 ft | 445 kts | 188° |
| 2026-05-06 07:08 | -15.23488 | 120.45439 | 23892 ft | 445 kts | 188° |
| 2026-05-06 07:08 | -15.26545 | 120.45323 | 23893 ft | 445 kts | 188° |
| 2026-05-06 07:08 | -15.29643 | 120.45205 | 23891 ft | 445 kts | 188° |
| 2026-05-06 07:09 | -15.32739 | 120.45088 | 23889 ft | 445 kts | 188° |
| 2026-05-06 07:09 | -15.35834 | 120.44965 | 23892 ft | 444 kts | 189° |
| 2026-05-06 07:09 | -15.38871 | 120.44524 | 23886 ft | 436 kts | 199° |
| 2026-05-06 07:09 | -15.41754 | 120.43609 | 23898 ft | 430 kts | 207° |
| 2026-05-06 07:10 | -15.44435 | 120.42289 | 23891 ft | 423 kts | 216° |
| 2026-05-06 07:10 | -15.46947 | 120.40700 | 23896 ft | 422 kts | 217° |
| 2026-05-06 07:10 | -15.49436 | 120.39092 | 23889 ft | 422 kts | 217° |
| 2026-05-06 07:10 | -15.51903 | 120.37492 | 23894 ft | 422 kts | 217° |
| 2026-05-06 07:11 | -15.54390 | 120.35884 | 23894 ft | 422 kts | 217° |
| 2026-05-06 07:11 | -15.56896 | 120.34271 | 23893 ft | 422 kts | 217° |
| 2026-05-06 07:11 | -15.59393 | 120.32672 | 23896 ft | 421 kts | 217° |
| 2026-05-06 07:11 | -15.61895 | 120.31073 | 23894 ft | 421 kts | 217° |
| 2026-05-06 07:12 | -15.64395 | 120.29479 | 23894 ft | 421 kts | 217° |
| 2026-05-06 07:12 | -15.66889 | 120.27890 | 23894 ft | 421 kts | 217° |
| 2026-05-06 07:12 | -15.69351 | 120.26322 | 23894 ft | 421 kts | 217° |
| 2026-05-06 07:12 | -15.71845 | 120.24732 | 23893 ft | 420 kts | 217° |
| 2026-05-06 07:13 | -15.74339 | 120.23142 | 23896 ft | 420 kts | 217° |
| 2026-05-06 07:13 | -15.76833 | 120.21552 | 23899 ft | 420 kts | 217° |
| 2026-05-06 07:13 | -15.79325 | 120.19962 | 23897 ft | 420 kts | 217° |
| 2026-05-06 07:13 | -15.81818 | 120.18372 | 23897 ft | 420 kts | 217° |
| 2026-05-06 07:14 | -15.84317 | 120.16776 | 23897 ft | 420 kts | 217° |
| 2026-05-06 07:14 | -15.86808 | 120.15186 | 23901 ft | 420 kts | 217° |
| 2026-05-06 07:14 | -15.89265 | 120.13616 | 23896 ft | 420 kts | 217° |
| 2026-05-06 07:14 | -15.91756 | 120.12025 | 23894 ft | 420 kts | 217° |
| 2026-05-06 07:15 | -15.94247 | 120.10432 | 23895 ft | 420 kts | 217° |
| 2026-05-06 07:15 | -15.96736 | 120.08841 | 23902 ft | 420 kts | 217° |
| 2026-05-06 07:15 | -15.99222 | 120.07252 | 23899 ft | 420 kts | 217° |
| 2026-05-06 07:15 | -16.01713 | 120.05659 | 23897 ft | 420 kts | 217° |
| 2026-05-06 07:16 | -16.04202 | 120.04066 | 23902 ft | 420 kts | 217° |
| 2026-05-06 07:16 | -16.06693 | 120.02471 | 23904 ft | 420 kts | 217° |
| 2026-05-06 07:16 | -16.09181 | 120.00879 | 23903 ft | 420 kts | 217° |
| 2026-05-06 07:16 | -16.11667 | 119.99287 | 23894 ft | 420 kts | 217° |
| 2026-05-06 07:17 | -16.14154 | 119.97693 | 23894 ft | 420 kts | 217° |
| 2026-05-06 07:17 | -16.16637 | 119.96102 | 23900 ft | 420 kts | 217° |
| 2026-05-06 07:17 | -16.19122 | 119.94509 | 23902 ft | 420 kts | 217° |
| 2026-05-06 07:17 | -16.21609 | 119.92915 | 23907 ft | 420 kts | 217° |
| 2026-05-06 07:18 | -16.24092 | 119.91322 | 23893 ft | 419 kts | 217° |
| 2026-05-06 07:18 | -16.26578 | 119.89727 | 23897 ft | 419 kts | 217° |
| 2026-05-06 07:18 | -16.29063 | 119.88132 | 23895 ft | 419 kts | 217° |
| 2026-05-06 07:18 | -16.31515 | 119.86558 | 23902 ft | 419 kts | 217° |
| 2026-05-06 07:19 | -16.34030 | 119.84943 | 23900 ft | 420 kts | 217° |
| 2026-05-06 07:19 | -16.36513 | 119.83348 | 23902 ft | 420 kts | 217° |
| 2026-05-06 07:19 | -16.38999 | 119.81751 | 23911 ft | 420 kts | 217° |
| 2026-05-06 07:19 | -16.41483 | 119.80154 | 23905 ft | 420 kts | 217° |
| 2026-05-06 07:20 | -16.43969 | 119.78556 | 23904 ft | 420 kts | 217° |
| 2026-05-06 07:20 | -16.46422 | 119.76978 | 23899 ft | 420 kts | 217° |
| 2026-05-06 07:20 | -16.48911 | 119.75377 | 23908 ft | 420 kts | 217° |
| 2026-05-06 07:20 | -16.51400 | 119.73776 | 23900 ft | 420 kts | 217° |
| 2026-05-06 07:21 | -16.53889 | 119.72173 | 23898 ft | 420 kts | 217° |
| 2026-05-06 07:21 | -16.56380 | 119.70569 | 23896 ft | 420 kts | 217° |
| 2026-05-06 07:21 | -16.58869 | 119.68966 | 23912 ft | 420 kts | 217° |
| 2026-05-06 07:21 | -16.61356 | 119.67363 | 23907 ft | 420 kts | 217° |
| 2026-05-06 07:22 | -16.63845 | 119.65759 | 23889 ft | 421 kts | 217° |
| 2026-05-06 07:22 | -16.66339 | 119.64152 | 23908 ft | 420 kts | 217° |
| 2026-05-06 07:22 | -16.68789 | 119.62571 | 23917 ft | 420 kts | 217° |
| 2026-05-06 07:22 | -16.71276 | 119.60967 | 23909 ft | 420 kts | 217° |
| 2026-05-06 07:23 | -16.73765 | 119.59361 | 23910 ft | 420 kts | 217° |
| 2026-05-06 07:23 | -16.76246 | 119.57760 | 23912 ft | 420 kts | 217° |
| 2026-05-06 07:23 | -16.78733 | 119.56154 | 23908 ft | 420 kts | 217° |
| 2026-05-06 07:23 | -16.81222 | 119.54546 | 23906 ft | 420 kts | 217° |
| 2026-05-06 07:24 | -16.83709 | 119.52939 | 23905 ft | 420 kts | 217° |
| 2026-05-06 07:24 | -16.86196 | 119.51332 | 23910 ft | 420 kts | 217° |
| 2026-05-06 07:24 | -16.88677 | 119.49728 | 23909 ft | 420 kts | 217° |
| 2026-05-06 07:24 | -16.91181 | 119.48107 | 23918 ft | 426 kts | 217° |
| 2026-05-06 07:25 | -16.93686 | 119.46483 | 23924 ft | 433 kts | 217° |
| 2026-05-06 07:25 | -16.96264 | 119.44812 | 23919 ft | 438 kts | 217° |
| 2026-05-06 07:25 | -16.98864 | 119.43128 | 23916 ft | 440 kts | 217° |
| 2026-05-06 07:25 | -17.01458 | 119.41451 | 23905 ft | 437 kts | 217° |
| 2026-05-06 07:26 | -17.04045 | 119.39778 | 23906 ft | 436 kts | 217° |
| 2026-05-06 07:26 | -17.06620 | 119.38112 | 23908 ft | 436 kts | 217° |
| 2026-05-06 07:26 | -17.09205 | 119.36438 | 23910 ft | 435 kts | 217° |
| 2026-05-06 07:26 | -17.11780 | 119.34768 | 23910 ft | 435 kts | 217° |
| 2026-05-06 07:27 | -17.14354 | 119.33099 | 23911 ft | 435 kts | 217° |
| 2026-05-06 07:27 | -17.16926 | 119.31429 | 23912 ft | 435 kts | 217° |
| 2026-05-06 07:27 | -17.19502 | 119.29757 | 23914 ft | 435 kts | 217° |
| 2026-05-06 07:27 | -17.22070 | 119.28089 | 23912 ft | 435 kts | 217° |
| 2026-05-06 07:28 | -17.24646 | 119.26416 | 23914 ft | 435 kts | 217° |
| 2026-05-06 07:28 | -17.27219 | 119.24744 | 23913 ft | 436 kts | 217° |
| 2026-05-06 07:28 | -17.32335 | 119.21418 | 23914 ft | 436 kts | 217° |
| 2026-05-06 07:29 | -17.34915 | 119.19741 | 23915 ft | 435 kts | 217° |
| 2026-05-06 07:29 | -17.37487 | 119.18067 | 23912 ft | 435 kts | 217° |
| 2026-05-06 07:29 | -17.40065 | 119.16390 | 23914 ft | 435 kts | 217° |
| 2026-05-06 07:29 | -17.42635 | 119.14716 | 23919 ft | 435 kts | 217° |
| 2026-05-06 07:30 | -17.45212 | 119.13038 | 23915 ft | 435 kts | 217° |
| 2026-05-06 07:30 | -17.47780 | 119.11365 | 23913 ft | 434 kts | 217° |
| 2026-05-06 07:30 | -17.50346 | 119.09693 | 23919 ft | 434 kts | 217° |
| 2026-05-06 07:30 | -17.52881 | 119.08040 | 23917 ft | 434 kts | 217° |
| 2026-05-06 07:31 | -17.55442 | 119.06370 | 23920 ft | 434 kts | 217° |
| 2026-05-06 07:31 | -17.58002 | 119.04699 | 23919 ft | 434 kts | 217° |
| 2026-05-06 07:31 | -17.60565 | 119.03026 | 23921 ft | 434 kts | 217° |
| 2026-05-06 07:31 | -17.63131 | 119.01351 | 23922 ft | 433 kts | 217° |
| 2026-05-06 07:32 | -17.65685 | 118.99684 | 23923 ft | 433 kts | 217° |
| 2026-05-06 07:32 | -17.68153 | 118.97898 | 23917 ft | 429 kts | 224° |
| 2026-05-06 07:32 | -17.70331 | 118.95783 | 23925 ft | 424 kts | 230° |
| 2026-05-06 07:32 | -17.72410 | 118.93580 | 23919 ft | 425 kts | 230° |
| 2026-05-06 07:33 | -17.74484 | 118.91376 | 23918 ft | 425 kts | 230° |
| 2026-05-06 07:33 | -17.76566 | 118.89168 | 23922 ft | 425 kts | 230° |
| 2026-05-06 07:33 | -17.78647 | 118.86969 | 23922 ft | 426 kts | 230° |
| 2026-05-06 07:33 | -17.80742 | 118.84762 | 23927 ft | 426 kts | 229° |
| 2026-05-06 07:34 | -17.82835 | 118.82561 | 23922 ft | 426 kts | 229° |
| 2026-05-06 07:34 | -17.84937 | 118.80355 | 23921 ft | 426 kts | 229° |
| 2026-05-06 07:34 | -17.87032 | 118.78156 | 23919 ft | 426 kts | 229° |
| 2026-05-06 07:34 | -17.89108 | 118.75978 | 23923 ft | 426 kts | 229° |
| 2026-05-06 07:35 | -17.91207 | 118.73774 | 23924 ft | 426 kts | 229° |
| 2026-05-06 07:35 | -17.93302 | 118.71574 | 23925 ft | 426 kts | 229° |
| 2026-05-06 07:35 | -17.95403 | 118.69367 | 23924 ft | 426 kts | 229° |
| 2026-05-06 07:35 | -17.97499 | 118.67164 | 23922 ft | 426 kts | 229° |
| 2026-05-06 07:36 | -17.99598 | 118.64957 | 23928 ft | 426 kts | 229° |
| 2026-05-06 07:36 | -18.01691 | 118.62755 | 23926 ft | 426 kts | 229° |
| 2026-05-06 07:36 | -18.03791 | 118.60546 | 23925 ft | 426 kts | 229° |
| 2026-05-06 07:36 | -18.05886 | 118.58341 | 23927 ft | 426 kts | 229° |
| 2026-05-06 07:37 | -18.07984 | 118.56131 | 23926 ft | 426 kts | 229° |
| 2026-05-06 07:37 | -18.10081 | 118.53923 | 23928 ft | 427 kts | 229° |
| 2026-05-06 07:37 | -18.12176 | 118.51715 | 23928 ft | 427 kts | 229° |
| 2026-05-06 07:37 | -18.14245 | 118.49535 | 23928 ft | 427 kts | 229° |
| 2026-05-06 07:38 | -18.16339 | 118.47326 | 23928 ft | 427 kts | 229° |
| 2026-05-06 07:38 | -18.18437 | 118.45113 | 23930 ft | 427 kts | 229° |
| 2026-05-06 07:38 | -18.20530 | 118.42904 | 23929 ft | 427 kts | 229° |
| 2026-05-06 07:38 | -18.22629 | 118.40688 | 23933 ft | 427 kts | 229° |
| 2026-05-06 07:39 | -18.24726 | 118.38475 | 23931 ft | 427 kts | 229° |
| 2026-05-06 07:39 | -18.26822 | 118.36260 | 23934 ft | 427 kts | 229° |
| 2026-05-06 07:39 | -18.28922 | 118.34041 | 23935 ft | 427 kts | 229° |
| 2026-05-06 07:39 | -18.31021 | 118.31822 | 23935 ft | 427 kts | 229° |
| 2026-05-06 07:40 | -18.33114 | 118.29608 | 23934 ft | 427 kts | 229° |
| 2026-05-06 07:40 | -18.35212 | 118.27389 | 23935 ft | 427 kts | 229° |
| 2026-05-06 07:40 | -18.37305 | 118.25174 | 23939 ft | 426 kts | 229° |
| 2026-05-06 07:40 | -18.39367 | 118.22940 | 23931 ft | 424 kts | 234° |
| 2026-05-06 07:41 | -18.40816 | 118.20289 | 23947 ft | 416 kts | 252° |
| 2026-05-06 07:41 | -18.41450 | 118.17338 | 23942 ft | 414 kts | 265° |
| 2026-05-06 07:41 | -18.41405 | 118.14314 | 23948 ft | 414 kts | 277° |
| 2026-05-06 07:41 | -18.40715 | 118.11407 | 23940 ft | 418 kts | 289° |
| 2026-05-06 07:42 | -18.39337 | 118.08695 | 23934 ft | 424 kts | 302° |
| 2026-05-06 07:42 | -18.37307 | 118.06404 | 23942 ft | 431 kts | 315° |
| 2026-05-06 07:42 | -18.34783 | 118.04651 | 23925 ft | 442 kts | 329° |
| 2026-05-06 07:42 | -18.31856 | 118.03546 | 23947 ft | 449 kts | 337° |
| 2026-05-06 07:43 | -18.28845 | 118.02634 | 23933 ft | 451 kts | 338° |
| 2026-05-06 07:43 | -18.25816 | 118.01769 | 23928 ft | 451 kts | 339° |
| 2026-05-06 07:43 | -18.22820 | 118.00922 | 23925 ft | 451 kts | 339° |
| 2026-05-06 07:43 | -18.19792 | 118.00054 | 23925 ft | 451 kts | 339° |
| 2026-05-06 07:44 | -18.16765 | 117.99170 | 23925 ft | 451 kts | 338° |
| 2026-05-06 07:44 | -18.13743 | 117.98275 | 23929 ft | 451 kts | 338° |
| 2026-05-06 07:44 | -18.10711 | 117.97366 | 23941 ft | 455 kts | 338° |
| 2026-05-06 07:44 | -18.07652 | 117.96444 | 23947 ft | 460 kts | 338° |
| 2026-05-06 07:45 | -18.04564 | 117.95512 | 23945 ft | 464 kts | 338° |
| 2026-05-06 07:45 | -18.01446 | 117.94571 | 23940 ft | 467 kts | 338° |
| 2026-05-06 07:45 | -17.98307 | 117.93626 | 23937 ft | 470 kts | 338° |
| 2026-05-06 07:45 | -17.95164 | 117.92681 | 23934 ft | 471 kts | 338° |
| 2026-05-06 07:46 | -17.92011 | 117.91735 | 23926 ft | 471 kts | 338° |
| 2026-05-06 07:46 | -17.88857 | 117.90789 | 23926 ft | 471 kts | 338° |
| 2026-05-06 07:46 | -17.85713 | 117.89847 | 23927 ft | 471 kts | 338° |
| 2026-05-06 07:46 | -17.82595 | 117.88911 | 23931 ft | 471 kts | 338° |
| 2026-05-06 07:47 | -17.79441 | 117.87965 | 23932 ft | 471 kts | 338° |
| 2026-05-06 07:47 | -17.76286 | 117.87019 | 23929 ft | 470 kts | 338° |
| 2026-05-06 07:47 | -17.73138 | 117.86075 | 23929 ft | 470 kts | 338° |
| 2026-05-06 07:47 | -17.69999 | 117.85134 | 23932 ft | 470 kts | 338° |
| 2026-05-06 07:48 | -17.66857 | 117.84192 | 23931 ft | 470 kts | 338° |
| 2026-05-06 07:48 | -17.63706 | 117.83249 | 23930 ft | 469 kts | 338° |
| 2026-05-06 07:48 | -17.60566 | 117.82309 | 23928 ft | 469 kts | 338° |
| 2026-05-06 07:48 | -17.57431 | 117.81370 | 23930 ft | 469 kts | 338° |
| 2026-05-06 07:49 | -17.54330 | 117.80443 | 23927 ft | 469 kts | 338° |
| 2026-05-06 07:49 | -17.51120 | 117.79742 | 23920 ft | 476 kts | 347° |
| 2026-05-06 07:49 | -17.47787 | 117.79571 | 23929 ft | 483 kts | 354° |
| 2026-05-06 07:49 | -17.44411 | 117.79794 | 23928 ft | 488 kts | 1° |
| 2026-05-06 07:50 | -17.41054 | 117.80474 | 23924 ft | 496 kts | 9° |
| 2026-05-06 07:50 | -17.37823 | 117.81827 | 23919 ft | 508 kts | 24° |
| 2026-05-06 07:50 | -17.34890 | 117.83955 | 23933 ft | 516 kts | 35° |
| 2026-05-06 07:50 | -17.32304 | 117.86584 | 23927 ft | 523 kts | 46° |
| 2026-05-06 07:51 | -17.30250 | 117.89752 | 23926 ft | 530 kts | 59° |
| 2026-05-06 07:51 | -17.28541 | 117.93172 | 23927 ft | 531 kts | 60° |
| 2026-05-06 07:51 | -17.26868 | 117.96618 | 23922 ft | 531 kts | 60° |
| 2026-05-06 07:51 | -17.25198 | 118.00068 | 23919 ft | 531 kts | 60° |
| 2026-05-06 07:52 | -17.23518 | 118.03506 | 23915 ft | 531 kts | 60° |
| 2026-05-06 07:52 | -17.21817 | 118.06942 | 23916 ft | 531 kts | 59° |
| 2026-05-06 07:52 | -17.20103 | 118.10365 | 23919 ft | 531 kts | 59° |
| 2026-05-06 07:52 | -17.18377 | 118.13786 | 23921 ft | 531 kts | 59° |
| 2026-05-06 07:53 | -17.16648 | 118.17200 | 23821 ft | 532 kts | 59° |
| 2026-05-06 07:53 | -17.14917 | 118.20612 | 23591 ft | 528 kts | 59° |
| 2026-05-06 07:53 | -17.13220 | 118.23957 | 23353 ft | 525 kts | 59° |
| 2026-05-06 07:53 | -17.11514 | 118.27319 | 23089 ft | 523 kts | 59° |
| 2026-05-06 07:54 | -17.09815 | 118.30668 | 22837 ft | 520 kts | 59° |
| 2026-05-06 07:54 | -17.08117 | 118.34013 | 22578 ft | 518 kts | 59° |
| 2026-05-06 07:54 | -17.06980 | 118.36255 | 22405 ft | 517 kts | 59° |
| 2026-05-06 07:54 | -17.05320 | 118.39524 | 22155 ft | 515 kts | 59° |
| 2026-05-06 07:55 | -17.03073 | 118.43948 | 21817 ft | 512 kts | 59° |
| 2026-05-06 07:55 | -17.01973 | 118.46114 | 21649 ft | 510 kts | 59° |
| 2026-05-06 07:55 | -17.00311 | 118.49385 | 21402 ft | 508 kts | 59° |
| 2026-05-06 07:55 | -16.98658 | 118.52634 | 21162 ft | 505 kts | 59° |
| 2026-05-06 07:56 | -16.97013 | 118.55869 | 20919 ft | 503 kts | 59° |
| 2026-05-06 07:56 | -16.95372 | 118.59091 | 20676 ft | 500 kts | 59° |
| 2026-05-06 07:56 | -16.93746 | 118.62285 | 20438 ft | 498 kts | 59° |
| 2026-05-06 07:56 | -16.92123 | 118.65469 | 20203 ft | 495 kts | 59° |
| 2026-05-06 07:57 | -16.90509 | 118.68634 | 19962 ft | 493 kts | 59° |
| 2026-05-06 07:57 | -16.88901 | 118.71788 | 19727 ft | 490 kts | 59° |
| 2026-05-06 07:57 | -16.87299 | 118.74927 | 19497 ft | 488 kts | 60° |
| 2026-05-06 07:57 | -16.85703 | 118.78052 | 19265 ft | 486 kts | 60° |
| 2026-05-06 07:58 | -16.84138 | 118.81118 | 19038 ft | 484 kts | 60° |
| 2026-05-06 07:58 | -16.82557 | 118.84212 | 18814 ft | 482 kts | 60° |
| 2026-05-06 07:58 | -16.80985 | 118.87285 | 18588 ft | 479 kts | 60° |
| 2026-05-06 07:58 | -16.79416 | 118.90353 | 18367 ft | 477 kts | 60° |
| 2026-05-06 07:59 | -16.77851 | 118.93412 | 18131 ft | 475 kts | 60° |
| 2026-05-06 07:59 | -16.76297 | 118.96446 | 17876 ft | 473 kts | 60° |
| 2026-05-06 07:59 | -16.74748 | 118.99471 | 17621 ft | 471 kts | 60° |
| 2026-05-06 07:59 | -16.73209 | 119.02475 | 17359 ft | 468 kts | 60° |
| 2026-05-06 08:00 | -16.71693 | 119.05432 | 17110 ft | 466 kts | 60° |
| 2026-05-06 08:00 | -16.70168 | 119.08406 | 16860 ft | 463 kts | 60° |
| 2026-05-06 08:00 | -16.68650 | 119.11363 | 16609 ft | 461 kts | 60° |
| 2026-05-06 08:00 | -16.67140 | 119.14306 | 16357 ft | 459 kts | 60° |
| 2026-05-06 08:01 | -16.65639 | 119.17228 | 16118 ft | 456 kts | 60° |
| 2026-05-06 08:01 | -16.64146 | 119.20136 | 15872 ft | 454 kts | 60° |
| 2026-05-06 08:01 | -16.62659 | 119.23028 | 15636 ft | 451 kts | 61° |
| 2026-05-06 08:01 | -16.61180 | 119.25905 | 15397 ft | 449 kts | 61° |
| 2026-05-06 08:02 | -16.59707 | 119.28768 | 15161 ft | 447 kts | 61° |
| 2026-05-06 08:02 | -16.58239 | 119.31621 | 14975 ft | 444 kts | 61° |
| 2026-05-06 08:02 | -16.56776 | 119.34462 | 14921 ft | 444 kts | 61° |
| 2026-05-06 08:02 | -16.55319 | 119.37292 | 14912 ft | 443 kts | 61° |
| 2026-05-06 08:03 | -16.53861 | 119.40121 | 14911 ft | 443 kts | 61° |
| 2026-05-06 08:03 | -16.52404 | 119.42947 | 14906 ft | 443 kts | 61° |
| 2026-05-06 08:03 | -16.50945 | 119.45778 | 14919 ft | 444 kts | 61° |
| 2026-05-06 08:03 | -16.49472 | 119.48632 | 15366 ft | 447 kts | 61° |
| 2026-05-06 08:04 | -16.48018 | 119.51450 | 15922 ft | 447 kts | 60° |
| 2026-05-06 08:04 | -16.46540 | 119.54313 | 16433 ft | 449 kts | 60° |
| 2026-05-06 08:04 | -16.45052 | 119.57193 | 16898 ft | 453 kts | 60° |
| 2026-05-06 08:04 | -16.43555 | 119.60091 | 17337 ft | 457 kts | 60° |
| 2026-05-06 08:05 | -16.42038 | 119.63024 | 17758 ft | 461 kts | 60° |
| 2026-05-06 08:05 | -16.40512 | 119.65975 | 18169 ft | 465 kts | 60° |
| 2026-05-06 08:05 | -16.38974 | 119.68947 | 18514 ft | 468 kts | 60° |
| 2026-05-06 08:05 | -16.37422 | 119.71945 | 18860 ft | 472 kts | 59° |
| 2026-05-06 08:06 | -16.35855 | 119.74971 | 19201 ft | 475 kts | 59° |
| 2026-05-06 08:06 | -16.34281 | 119.78008 | 19529 ft | 479 kts | 59° |
| 2026-05-06 08:06 | -16.32694 | 119.81071 | 19855 ft | 482 kts | 59° |
| 2026-05-06 08:06 | -16.31115 | 119.84116 | 20171 ft | 485 kts | 59° |
| 2026-05-06 08:07 | -16.29505 | 119.87220 | 20475 ft | 488 kts | 59° |
| 2026-05-06 08:07 | -16.27884 | 119.90343 | 20772 ft | 492 kts | 59° |
| 2026-05-06 08:07 | -16.26254 | 119.93482 | 21065 ft | 495 kts | 59° |
| 2026-05-06 08:07 | -16.24612 | 119.96643 | 21355 ft | 498 kts | 59° |
| 2026-05-06 08:08 | -16.22960 | 119.99823 | 21626 ft | 501 kts | 59° |
| 2026-05-06 08:08 | -16.21301 | 120.03014 | 21996 ft | 501 kts | 59° |
| 2026-05-06 08:08 | -16.19652 | 120.06188 | 22577 ft | 497 kts | 59° |
| 2026-05-06 08:08 | -16.18013 | 120.09340 | 23225 ft | 493 kts | 59° |
| 2026-05-06 08:09 | -16.16388 | 120.12466 | 23768 ft | 490 kts | 58° |
| 2026-05-06 08:09 | -16.14768 | 120.15577 | 24219 ft | 489 kts | 58° |
| 2026-05-06 08:09 | -16.13141 | 120.18698 | 24601 ft | 491 kts | 58° |
| 2026-05-06 08:09 | -16.11509 | 120.21825 | 24976 ft | 492 kts | 58° |
| 2026-05-06 08:10 | -16.09875 | 120.24958 | 25392 ft | 493 kts | 58° |
| 2026-05-06 08:10 | -16.08238 | 120.28095 | 25833 ft | 493 kts | 58° |
| 2026-05-06 08:10 | -16.06624 | 120.31185 | 26265 ft | 493 kts | 58° |
| 2026-05-06 08:10 | -16.04983 | 120.34328 | 26676 ft | 494 kts | 58° |
| 2026-05-06 08:11 | -16.03345 | 120.37463 | 27098 ft | 495 kts | 58° |
| 2026-05-06 08:11 | -16.01698 | 120.40614 | 27563 ft | 495 kts | 58° |
| 2026-05-06 08:11 | -16.00056 | 120.43754 | 28034 ft | 494 kts | 58° |
| 2026-05-06 08:11 | -15.98412 | 120.46897 | 28472 ft | 495 kts | 58° |
| 2026-05-06 08:12 | -15.96765 | 120.50044 | 28921 ft | 496 kts | 58° |
| 2026-05-06 08:12 | -15.95117 | 120.53192 | 29375 ft | 496 kts | 58° |
| 2026-05-06 08:12 | -15.93466 | 120.56343 | 29839 ft | 496 kts | 58° |
| 2026-05-06 08:12 | -15.91811 | 120.59501 | 30232 ft | 497 kts | 58° |
| 2026-05-06 08:13 | -15.90158 | 120.62653 | 30633 ft | 496 kts | 59° |
| 2026-05-06 08:13 | -15.88507 | 120.65802 | 31055 ft | 496 kts | 59° |
| 2026-05-06 08:13 | -15.86858 | 120.68945 | 31460 ft | 496 kts | 59° |
| 2026-05-06 08:13 | -15.85209 | 120.72087 | 31853 ft | 496 kts | 59° |
| 2026-05-06 08:14 | -15.83555 | 120.75234 | 32266 ft | 495 kts | 59° |
| 2026-05-06 08:14 | -15.81928 | 120.78332 | 32676 ft | 495 kts | 59° |
| 2026-05-06 08:14 | -15.80280 | 120.81466 | 33070 ft | 495 kts | 59° |
| 2026-05-06 08:14 | -15.78626 | 120.84611 | 33459 ft | 495 kts | 59° |
| 2026-05-06 08:15 | -15.76973 | 120.87753 | 33799 ft | 497 kts | 60° |
| 2026-05-06 08:15 | -15.75310 | 120.90910 | 33946 ft | 503 kts | 60° |
| 2026-05-06 08:15 | -15.73621 | 120.94116 | 34064 ft | 508 kts | 60° |
| 2026-05-06 08:15 | -15.71918 | 120.97347 | 34238 ft | 512 kts | 60° |
| 2026-05-06 08:16 | -15.70204 | 121.00599 | 34504 ft | 513 kts | 60° |
| 2026-05-06 08:16 | -15.68497 | 121.03839 | 34904 ft | 510 kts | 59° |
| 2026-05-06 08:16 | -15.66799 | 121.07058 | 35334 ft | 507 kts | 59° |
| 2026-05-06 08:16 | -15.65114 | 121.10254 | 35710 ft | 504 kts | 59° |
| 2026-05-06 08:17 | -15.63430 | 121.13444 | 36037 ft | 504 kts | 59° |
| 2026-05-06 08:17 | -15.61744 | 121.16636 | 36338 ft | 504 kts | 59° |
| 2026-05-06 08:17 | -15.60058 | 121.19825 | 36677 ft | 502 kts | 59° |
| 2026-05-06 08:17 | -15.58380 | 121.22999 | 37029 ft | 500 kts | 59° |
| 2026-05-06 08:18 | -15.56729 | 121.26120 | 37357 ft | 499 kts | 59° |
| 2026-05-06 08:18 | -15.55060 | 121.29274 | 37652 ft | 498 kts | 59° |
| 2026-05-06 08:18 | -15.53393 | 121.32422 | 37943 ft | 497 kts | 59° |
| 2026-05-06 08:18 | -15.51707 | 121.35606 | 38256 ft | 496 kts | 59° |
| 2026-05-06 08:19 | -15.50050 | 121.38734 | 38574 ft | 494 kts | 59° |
| 2026-05-06 08:19 | -15.48420 | 121.41809 | 38818 ft | 493 kts | 59° |
| 2026-05-06 08:19 | -15.45092 | 121.48082 | 38905 ft | 500 kts | 59° |
| 2026-05-06 08:20 | -15.41709 | 121.54450 | 38918 ft | 508 kts | 59° |
| 2026-05-06 08:20 | -15.38274 | 121.60913 | 38916 ft | 515 kts | 59° |
| 2026-05-06 08:21 | -15.34791 | 121.67465 | 38915 ft | 523 kts | 59° |
| 2026-05-06 08:21 | -15.31285 | 121.74051 | 38914 ft | 528 kts | 59° |
| 2026-05-06 08:22 | -15.27705 | 121.80774 | 38908 ft | 531 kts | 59° |
| 2026-05-06 08:22 | -15.24153 | 121.87437 | 38904 ft | 532 kts | 59° |
| 2026-05-06 08:23 | -15.20573 | 121.94145 | 38906 ft | 532 kts | 59° |
| 2026-05-06 08:23 | -15.16988 | 122.00858 | 38908 ft | 531 kts | 59° |
| 2026-05-06 08:24 | -15.13411 | 122.07548 | 38904 ft | 530 kts | 59° |
| 2026-05-06 08:24 | -15.09837 | 122.14228 | 38906 ft | 529 kts | 59° |
| 2026-05-06 08:25 | -15.06290 | 122.20850 | 38906 ft | 528 kts | 59° |
| 2026-05-06 08:25 | -15.02726 | 122.27498 | 38906 ft | 527 kts | 59° |
| 2026-05-06 08:26 | -14.99172 | 122.34122 | 38905 ft | 526 kts | 59° |
| 2026-05-06 08:26 | -14.95617 | 122.40742 | 38908 ft | 526 kts | 59° |
| 2026-05-06 08:27 | -14.92069 | 122.47343 | 38908 ft | 525 kts | 59° |
| 2026-05-06 08:27 | -14.88517 | 122.53948 | 38905 ft | 525 kts | 59° |
| 2026-05-06 08:28 | -14.84991 | 122.60496 | 38907 ft | 524 kts | 59° |
| 2026-05-06 08:28 | -14.81442 | 122.67083 | 38908 ft | 524 kts | 59° |
| 2026-05-06 08:29 | -14.77895 | 122.73659 | 38908 ft | 524 kts | 59° |
| 2026-05-06 08:29 | -14.74342 | 122.80243 | 38906 ft | 523 kts | 59° |
| 2026-05-06 08:30 | -14.70794 | 122.86810 | 38904 ft | 523 kts | 59° |
| 2026-05-06 08:30 | -14.67272 | 122.93323 | 38906 ft | 523 kts | 59° |
| 2026-05-06 08:31 | -14.63721 | 122.99887 | 38908 ft | 522 kts | 59° |
| 2026-05-06 08:31 | -14.60175 | 123.06434 | 38910 ft | 522 kts | 59° |
| 2026-05-06 08:32 | -14.56629 | 123.12976 | 38914 ft | 522 kts | 59° |
| 2026-05-06 08:32 | -14.53078 | 123.19521 | 38909 ft | 522 kts | 59° |
| 2026-05-06 08:33 | -14.49528 | 123.26060 | 38912 ft | 521 kts | 59° |
| 2026-05-06 08:33 | -14.46001 | 123.32552 | 38907 ft | 521 kts | 59° |
| 2026-05-06 08:34 | -14.40687 | 123.42322 | 38910 ft | 521 kts | 59° |
| 2026-05-06 08:35 | -14.37141 | 123.48835 | 38908 ft | 520 kts | 59° |
| 2026-05-06 08:35 | -14.33613 | 123.55310 | 38907 ft | 520 kts | 59° |
| 2026-05-06 08:36 | -14.30067 | 123.61813 | 38911 ft | 520 kts | 59° |
| 2026-05-06 08:36 | -14.26558 | 123.68333 | 38905 ft | 520 kts | 63° |
| 2026-05-06 08:37 | -14.24238 | 123.75400 | 38914 ft | 521 kts | 77° |
| 2026-05-06 08:37 | -14.22717 | 123.82702 | 38905 ft | 521 kts | 78° |
| 2026-05-06 08:38 | -14.21222 | 123.89967 | 38908 ft | 521 kts | 78° |
| 2026-05-06 08:38 | -14.19664 | 123.97252 | 38909 ft | 521 kts | 77° |
| 2026-05-06 08:39 | -14.18070 | 124.04538 | 38911 ft | 520 kts | 77° |
| 2026-05-06 08:39 | -14.16469 | 124.11815 | 38912 ft | 520 kts | 77° |
| 2026-05-06 08:40 | -14.14869 | 124.19093 | 38914 ft | 520 kts | 77° |
| 2026-05-06 08:40 | -14.13271 | 124.26362 | 38911 ft | 520 kts | 77° |
| 2026-05-06 08:41 | -14.11679 | 124.33595 | 38912 ft | 520 kts | 77° |
| 2026-05-06 08:41 | -14.10077 | 124.40865 | 38911 ft | 520 kts | 77° |
| 2026-05-06 08:42 | -14.08470 | 124.48142 | 38910 ft | 520 kts | 77° |
| 2026-05-06 08:42 | -14.07137 | 124.54174 | 38911 ft | 520 kts | 77° |
| 2026-05-06 08:43 | -14.05530 | 124.61431 | 38910 ft | 520 kts | 77° |
| 2026-05-06 08:43 | -14.03655 | 124.69886 | 38913 ft | 519 kts | 77° |
| 2026-05-06 08:44 | -14.02305 | 124.75967 | 38911 ft | 519 kts | 77° |
| 2026-05-06 08:44 | -14.00703 | 124.83169 | 38913 ft | 519 kts | 77° |
| 2026-05-06 08:45 | -13.99087 | 124.90426 | 38913 ft | 519 kts | 77° |
| 2026-05-06 08:45 | -13.97470 | 124.97677 | 38909 ft | 519 kts | 77° |
| 2026-05-06 08:46 | -13.95851 | 125.04924 | 38914 ft | 519 kts | 77° |
| 2026-05-06 08:46 | -13.94241 | 125.12123 | 38912 ft | 519 kts | 77° |
| 2026-05-06 08:47 | -13.92618 | 125.19369 | 38913 ft | 519 kts | 77° |
| 2026-05-06 08:47 | -13.90993 | 125.26611 | 38913 ft | 519 kts | 77° |
| 2026-05-06 08:48 | -13.89368 | 125.33846 | 38910 ft | 518 kts | 77° |
| 2026-05-06 08:48 | -13.87751 | 125.41034 | 38911 ft | 518 kts | 77° |
| 2026-05-06 08:49 | -13.86123 | 125.48259 | 38913 ft | 518 kts | 77° |
| 2026-05-06 08:49 | -13.84490 | 125.55497 | 38913 ft | 518 kts | 77° |
| 2026-05-06 08:50 | -13.82857 | 125.62725 | 38913 ft | 518 kts | 77° |
| 2026-05-06 08:50 | -13.81231 | 125.69908 | 38917 ft | 518 kts | 77° |
| 2026-05-06 08:51 | -13.79596 | 125.77123 | 38918 ft | 518 kts | 77° |
| 2026-05-06 08:51 | -13.77959 | 125.84338 | 38914 ft | 518 kts | 77° |
| 2026-05-06 08:52 | -13.76320 | 125.91552 | 38913 ft | 518 kts | 77° |
| 2026-05-06 08:52 | -13.74679 | 125.98762 | 38916 ft | 518 kts | 77° |
| 2026-05-06 08:53 | -13.73033 | 126.05985 | 38920 ft | 518 kts | 77° |
| 2026-05-06 08:53 | -13.71397 | 126.13153 | 38919 ft | 518 kts | 77° |
| 2026-05-06 08:54 | -13.69750 | 126.20359 | 38921 ft | 518 kts | 77° |
| 2026-05-06 08:54 | -13.68097 | 126.27580 | 38921 ft | 518 kts | 77° |
| 2026-05-06 08:55 | -13.66444 | 126.34797 | 38923 ft | 518 kts | 77° |
| 2026-05-06 08:55 | -13.64788 | 126.42009 | 38923 ft | 518 kts | 77° |
| 2026-05-06 08:56 | -13.63130 | 126.49222 | 38923 ft | 518 kts | 77° |
| 2026-05-06 08:56 | -13.61483 | 126.56382 | 38923 ft | 518 kts | 76° |
| 2026-05-06 08:57 | -13.59819 | 126.63599 | 38924 ft | 518 kts | 76° |
| 2026-05-06 08:57 | -13.58159 | 126.70796 | 38922 ft | 518 kts | 76° |
| 2026-05-06 08:58 | -13.56491 | 126.78010 | 38924 ft | 518 kts | 76° |
| 2026-05-06 08:58 | -13.54824 | 126.85214 | 38929 ft | 518 kts | 76° |
| 2026-05-06 08:59 | -13.53162 | 126.92387 | 38931 ft | 518 kts | 76° |
| 2026-05-06 08:59 | -13.51491 | 126.99587 | 38931 ft | 518 kts | 76° |
| 2026-05-06 09:00 | -13.49817 | 127.06792 | 38928 ft | 518 kts | 76° |
| 2026-05-06 09:00 | -13.48138 | 127.14006 | 38930 ft | 518 kts | 76° |
| 2026-05-06 09:01 | -13.46472 | 127.21158 | 38929 ft | 518 kts | 76° |
| 2026-05-06 09:01 | -13.44789 | 127.28371 | 38930 ft | 518 kts | 76° |
| 2026-05-06 09:02 | -13.43106 | 127.35574 | 38932 ft | 518 kts | 76° |
| 2026-05-06 09:02 | -13.41422 | 127.42770 | 38930 ft | 518 kts | 76° |
| 2026-05-06 09:03 | -13.39733 | 127.49983 | 38933 ft | 518 kts | 76° |
| 2026-05-06 09:03 | -13.38043 | 127.57187 | 38940 ft | 518 kts | 76° |
| 2026-05-06 09:04 | -13.36362 | 127.64342 | 38927 ft | 518 kts | 76° |
| 2026-05-06 09:04 | -13.34668 | 127.71545 | 38933 ft | 518 kts | 76° |
| 2026-05-06 09:05 | -13.32973 | 127.78741 | 38930 ft | 518 kts | 76° |
| 2026-05-06 09:05 | -13.31278 | 127.85930 | 38930 ft | 518 kts | 76° |
| 2026-05-06 09:06 | -13.29576 | 127.93138 | 38930 ft | 518 kts | 76° |
| 2026-05-06 09:06 | -13.27885 | 128.00289 | 38929 ft | 518 kts | 76° |
| 2026-05-06 09:07 | -13.26183 | 128.07479 | 38929 ft | 518 kts | 76° |
| 2026-05-06 09:07 | -13.24016 | 128.14522 | 38932 ft | 517 kts | 69° |
| 2026-05-06 09:08 | -13.21437 | 128.21427 | 38926 ft | 517 kts | 68° |
| 2026-05-06 09:08 | -13.18846 | 128.28317 | 38928 ft | 517 kts | 68° |
| 2026-05-06 09:09 | -13.16305 | 128.35224 | 38923 ft | 517 kts | 69° |
| 2026-05-06 09:09 | -13.13803 | 128.42107 | 38924 ft | 517 kts | 69° |
| 2026-05-06 09:10 | -13.11288 | 128.49033 | 38924 ft | 517 kts | 69° |
| 2026-05-06 09:10 | -13.10381 | 128.51525 | 38927 ft | 517 kts | 69° |
| 2026-05-06 09:11 | -13.08968 | 128.55408 | 38920 ft | 516 kts | 69° |
| 2026-05-06 09:11 | -13.06465 | 128.62273 | 38913 ft | 510 kts | 69° |
| 2026-05-06 09:12 | -13.03980 | 128.69080 | 38797 ft | 509 kts | 69° |
| 2026-05-06 09:12 | -13.02731 | 128.72497 | 38147 ft | 513 kts | 69° |
| 2026-05-06 09:12 | -13.01480 | 128.75918 | 37504 ft | 511 kts | 69° |
| 2026-05-06 09:12 | -13.00233 | 128.79331 | 36848 ft | 511 kts | 68° |
| 2026-05-06 09:13 | -12.98986 | 128.82740 | 36189 ft | 511 kts | 68° |
| 2026-05-06 09:13 | -12.97736 | 128.86156 | 35482 ft | 512 kts | 68° |
| 2026-05-06 09:13 | -12.96479 | 128.89589 | 34700 ft | 515 kts | 68° |
| 2026-05-06 09:13 | -12.95229 | 128.92999 | 33916 ft | 519 kts | 68° |
| 2026-05-06 09:14 | -12.93956 | 128.96472 | 32988 ft | 522 kts | 68° |
| 2026-05-06 09:14 | -12.92681 | 128.99952 | 32387 ft | 519 kts | 68° |
| 2026-05-06 09:14 | -12.91416 | 129.03403 | 31811 ft | 514 kts | 68° |
| 2026-05-06 09:14 | -12.90163 | 129.06821 | 31230 ft | 510 kts | 67° |
| 2026-05-06 09:15 | -12.88918 | 129.10214 | 30630 ft | 506 kts | 67° |
| 2026-05-06 09:15 | -12.87684 | 129.13574 | 30200 ft | 501 kts | 67° |
| 2026-05-06 09:15 | -12.86445 | 129.16944 | 30008 ft | 509 kts | 67° |
| 2026-05-06 09:15 | -12.85185 | 129.20365 | 29758 ft | 516 kts | 67° |
| 2026-05-06 09:16 | -12.83929 | 129.23774 | 29491 ft | 517 kts | 67° |
| 2026-05-06 09:16 | -12.82663 | 129.27216 | 28774 ft | 513 kts | 67° |
| 2026-05-06 09:16 | -12.81417 | 129.30606 | 28140 ft | 504 kts | 67° |
| 2026-05-06 09:16 | -12.80188 | 129.33946 | 27468 ft | 497 kts | 67° |
| 2026-05-06 09:17 | -12.78976 | 129.37240 | 26815 ft | 491 kts | 67° |
| 2026-05-06 09:17 | -12.77774 | 129.40502 | 26165 ft | 486 kts | 67° |
| 2026-05-06 09:17 | -12.76584 | 129.43729 | 25485 ft | 482 kts | 67° |
| 2026-05-06 09:17 | -12.75404 | 129.46926 | 24835 ft | 477 kts | 67° |
| 2026-05-06 09:18 | -12.74237 | 129.50088 | 24187 ft | 473 kts | 68° |
| 2026-05-06 09:18 | -12.73067 | 129.53254 | 23541 ft | 478 kts | 68° |
| 2026-05-06 09:18 | -12.71896 | 129.56418 | 22774 ft | 484 kts | 68° |
| 2026-05-06 09:18 | -12.70703 | 129.59644 | 22070 ft | 483 kts | 68° |
| 2026-05-06 09:19 | -12.69520 | 129.62845 | 21385 ft | 478 kts | 68° |
| 2026-05-06 09:19 | -12.68358 | 129.65987 | 20727 ft | 472 kts | 68° |
| 2026-05-06 09:19 | -12.67202 | 129.69116 | 20078 ft | 467 kts | 68° |
| 2026-05-06 09:19 | -12.66053 | 129.72220 | 19401 ft | 464 kts | 68° |
| 2026-05-06 09:20 | -12.64920 | 129.75281 | 18745 ft | 461 kts | 68° |
| 2026-05-06 09:20 | -12.63784 | 129.78345 | 18067 ft | 458 kts | 68° |
| 2026-05-06 09:20 | -12.62659 | 129.81382 | 17335 ft | 454 kts | 69° |
| 2026-05-06 09:20 | -12.61558 | 129.84351 | 16688 ft | 448 kts | 69° |
| 2026-05-06 09:21 | -12.60459 | 129.87315 | 16047 ft | 442 kts | 69° |
| 2026-05-06 09:21 | -12.59375 | 129.90238 | 15422 ft | 437 kts | 69° |
| 2026-05-06 09:21 | -12.58301 | 129.93132 | 14801 ft | 432 kts | 69° |
| 2026-05-06 09:21 | -12.57233 | 129.96006 | 14180 ft | 428 kts | 69° |
| 2026-05-06 09:22 | -12.56183 | 129.98833 | 13546 ft | 424 kts | 69° |
| 2026-05-06 09:22 | -12.55142 | 130.01634 | 12885 ft | 418 kts | 69° |
| 2026-05-06 09:22 | -12.54116 | 130.04397 | 12275 ft | 412 kts | 69° |
| 2026-05-06 09:22 | -12.53104 | 130.07118 | 11688 ft | 406 kts | 69° |
| 2026-05-06 09:23 | -12.52105 | 130.09803 | 11108 ft | 401 kts | 69° |
| 2026-05-06 09:23 | -12.51120 | 130.12448 | 10695 ft | 392 kts | 69° |
| 2026-05-06 09:23 | -12.50168 | 130.15006 | 10541 ft | 379 kts | 69° |
| 2026-05-06 09:23 | -12.49246 | 130.17483 | 10390 ft | 367 kts | 69° |
| 2026-05-06 09:24 | -12.48350 | 130.19887 | 10258 ft | 355 kts | 69° |
| 2026-05-06 09:24 | -12.47481 | 130.22222 | 10137 ft | 350 kts | 69° |
| 2026-05-06 09:24 | -12.46611 | 130.24557 | 10010 ft | 351 kts | 69° |
| 2026-05-06 09:24 | -12.45745 | 130.26878 | 9685 ft | 347 kts | 69° |
| 2026-05-06 09:25 | -12.44906 | 130.29127 | 9297 ft | 339 kts | 70° |
| 2026-05-06 09:25 | -12.44071 | 130.31365 | 8933 ft | 332 kts | 70° |
| 2026-05-06 09:25 | -12.43255 | 130.33552 | 8571 ft | 326 kts | 70° |
| 2026-05-06 09:25 | -12.42453 | 130.35699 | 8228 ft | 319 kts | 70° |
| 2026-05-06 09:26 | -12.41666 | 130.37809 | 7887 ft | 314 kts | 71° |
| 2026-05-06 09:26 | -12.40892 | 130.39881 | 7545 ft | 310 kts | 71° |
| 2026-05-06 09:26 | -12.40127 | 130.41928 | 7212 ft | 306 kts | 71° |
| 2026-05-06 09:26 | -12.39374 | 130.43946 | 6884 ft | 302 kts | 71° |
| 2026-05-06 09:27 | -12.38627 | 130.45946 | 6551 ft | 299 kts | 71° |
| 2026-05-06 09:27 | -12.37888 | 130.47922 | 6211 ft | 296 kts | 72° |
| 2026-05-06 09:27 | -12.37165 | 130.49859 | 5860 ft | 294 kts | 72° |
| 2026-05-06 09:27 | -12.36437 | 130.51807 | 5524 ft | 292 kts | 72° |
| 2026-05-06 09:28 | -12.35712 | 130.53749 | 5195 ft | 293 kts | 71° |
| 2026-05-06 09:28 | -12.34985 | 130.55694 | 5028 ft | 291 kts | 71° |
| 2026-05-06 09:28 | -12.34264 | 130.57621 | 4897 ft | 289 kts | 71° |
| 2026-05-06 09:28 | -12.33554 | 130.59514 | 4761 ft | 279 kts | 71° |
| 2026-05-06 09:29 | -12.32978 | 130.61360 | 4628 ft | 267 kts | 85° |
| 2026-05-06 09:29 | -12.32964 | 130.62601 | 4456 ft | 262 kts | 99° |
| 2026-05-06 09:29 | -12.33636 | 130.64955 | 4098 ft | 256 kts | 110° |
| 2026-05-06 09:29 | -12.34223 | 130.66654 | 3819 ft | 250 kts | 110° |
| 2026-05-06 09:30 | -12.34602 | 130.67756 | 3633 ft | 244 kts | 110° |
| 2026-05-06 09:30 | -12.35322 | 130.69870 | 3364 ft | 228 kts | 110° |
| 2026-05-06 09:30 | -12.35824 | 130.71347 | 3282 ft | 212 kts | 110° |
| 2026-05-06 09:30 | -12.36282 | 130.72702 | 3153 ft | 190 kts | 110° |
| 2026-05-06 09:31 | -12.36690 | 130.73913 | 3014 ft | 170 kts | 110° |
| 2026-05-06 09:31 | -12.37066 | 130.75029 | 2669 ft | 158 kts | 110° |
| 2026-05-06 09:31 | -12.37407 | 130.76041 | 2322 ft | 146 kts | 111° |
| 2026-05-06 09:31 | -12.37619 | 130.76673 | 2138 ft | 138 kts | 111° |
| 2026-05-06 09:32 | -12.37931 | 130.77597 | 1943 ft | 137 kts | 111° |
| 2026-05-06 09:32 | -12.38241 | 130.78512 | 1760 ft | 136 kts | 110° |
| 2026-05-06 09:32 | -12.38548 | 130.79423 | 1565 ft | 134 kts | 110° |
| 2026-05-06 09:32 | -12.38851 | 130.80336 | 1384 ft | 138 kts | 110° |
| 2026-05-06 09:33 | -12.39164 | 130.81278 | 1206 ft | 143 kts | 110° |
| 2026-05-06 09:33 | -12.39491 | 130.82246 | 1038 ft | 143 kts | 110° |
| 2026-05-06 09:33 | -12.39820 | 130.83225 | 849 ft | 147 kts | 110° |
| 2026-05-06 09:33 | -12.40153 | 130.84217 | 658 ft | 148 kts | 110° |
| 2026-05-06 09:34 | -12.40484 | 130.85212 | 432 ft | 146 kts | 110° |
| 2026-05-06 09:34 | -12.40817 | 130.86172 | 216 ft | 145 kts | 110° |
| 2026-05-06 09:34 | -12.41136 | 130.87111 | 94 ft | 129 kts | 110° |
| 2026-05-06 09:34 | -12.41373 | 130.87821 | 90 ft | 49 kts | 109° |
| 2026-05-06 09:35 | -12.41503 | 130.87955 | 90 ft | 25 kts | 188° |
| 2026-05-06 09:35 | -12.41666 | 130.87941 | 89 ft | 23 kts | 152° |
| 2026-05-06 09:35 | -12.41793 | 130.87981 | 91 ft | 17 kts | 183° |
| 2026-05-06 09:35 | -12.41845 | 130.88035 | 89 ft | 2 kts | 110° |